Observation data for Happy on 03/12/2018      Previous  Date  Next       Current Mesonet Observations  Soil Data  Daily Summary Page  Observations in Plain Language
KHA2 120500Z 05005KT 03/M12 A3036 RMK A01 T00261120  RH  033%=      5-min Rain = 0
KHA2 120501Z 05004KT 03/M13 A3036 RMK A01 T00251125  RH  032%=      5-min Rain = 0
KHA2 120502Z 05004KT 02/M13 A3036 RMK A01 T00241126  RH  032%=      5-min Rain = 0
KHA2 120503Z 04004KT 02/M13 A3036 RMK A01 T00231128  RH  032%=      5-min Rain = 0
KHA2 120504Z 04004KT 02/M13 A3036 RMK A01 T00231130  RH  031%=      5-min Rain = 0
KHA2 120505Z 04004KT 02/M14 A3036 RMK A01 T00211135  RH  030%=      5-min Rain = 0
KHA2 120506Z 04004KT 02/M14 A3036 RMK A01 T00191137  RH  030%=      5-min Rain = 0
KHA2 120507Z 04004KT 02/M14 A3036 RMK A01 T00191135  RH  031%=      5-min Rain = 0
KHA2 120508Z 04004KT 02/M13 A3036 RMK A01 T00201134  RH  031%=      5-min Rain = 0
KHA2 120509Z 04005KT 02/M13 A3036 RMK A01 T00201133  RH  031%=      5-min Rain = 0
KHA2 120510Z 04005KT 02/M14 A3036 RMK A01 T00201135  RH  031%=      5-min Rain = 0
KHA2 120511Z 04005KT 02/M14 A3036 RMK A01 T00191137  RH  030%=      5-min Rain = 0
KHA2 120512Z 04004KT 02/M14 A3036 RMK A01 T00171140  RH  030%=      5-min Rain = 0
KHA2 120513Z 04004KT 02/M14 A3036 RMK A01 T00161141  RH  030%=      5-min Rain = 0
KHA2 120514Z 04004KT 01/M15 A3036 RMK A01 T00141145  RH  030%=      5-min Rain = 0
KHA2 120515Z 04004KT 01/M14 A3036 RMK A01 T00131144  RH  030%=      5-min Rain = 0
KHA2 120516Z 04004KT 01/M15 A3036 RMK A01 T00121145  RH  030%=      5-min Rain = 0
KHA2 120517Z 03004KT 01/M15 A3036 RMK A01 T00111147  RH  030%=      5-min Rain = 0
KHA2 120518Z 03004KT 01/M15 A3036 RMK A01 T00091148  RH  030%=      5-min Rain = 0
KHA2 120519Z 03004KT 01/M14 A3036 RMK A01 T00091143  RH  031%=      5-min Rain = 0
KHA2 120520Z 03004KT 01/M14 A3036 RMK A01 T00101142  RH  031%=      5-min Rain = 0
KHA2 120521Z 03004KT 01/M14 A3036 RMK A01 T00101143  RH  031%=      5-min Rain = 0
KHA2 120522Z 04004KT 01/M14 A3036 RMK A01 T00091142  RH  031%=      5-min Rain = 0
KHA2 120523Z 04004KT 01/M14 A3036 RMK A01 T00101137  RH  032%=      5-min Rain = 0
KHA2 120524Z 04004KT 01/M13 A3036 RMK A01 T00121132  RH  033%=      5-min Rain = 0
KHA2 120525Z 04004KT 01/M13 A3036 RMK A01 T00131132  RH  033%=      5-min Rain = 0
KHA2 120526Z 04004KT 01/M13 A3036 RMK A01 T00141133  RH  033%=      5-min Rain = 0
KHA2 120527Z 04004KT 02/M13 A3036 RMK A01 T00151130  RH  033%=      5-min Rain = 0
KHA2 120528Z 04003KT 02/M13 A3036 RMK A01 T00161130  RH  033%=      5-min Rain = 0
KHA2 120529Z 04003KT 02/M13 A3036 RMK A01 T00161130  RH  033%=      5-min Rain = 0
KHA2 120530Z 04003KT 02/M13 A3036 RMK A01 T00171128  RH  033%=      5-min Rain = 0
KHA2 120531Z 03003KT 02/M13 A3036 RMK A01 T00171128  RH  033%=      5-min Rain = 0
KHA2 120532Z 03003KT 02/M13 A3036 RMK A01 T00171127  RH  033%=      5-min Rain = 0
KHA2 120533Z 02003KT 02/M13 A3036 RMK A01 T00181128  RH  033%=      5-min Rain = 0
KHA2 120534Z 03004KT 02/M13 A3036 RMK A01 T00171129  RH  033%=      5-min Rain = 0
KHA2 120535Z 03004KT 02/M13 A3036 RMK A01 T00171129  RH  033%=      5-min Rain = 0
KHA2 120536Z 03004KT 02/M13 A3036 RMK A01 T00171128  RH  033%=      5-min Rain = 0
KHA2 120537Z 03004KT 02/M13 A3036 RMK A01 T00171128  RH  033%=      5-min Rain = 0
KHA2 120538Z 04004KT 02/M13 A3036 RMK A01 T00161130  RH  033%=      5-min Rain = 0
KHA2 120539Z 04004KT 02/M13 A3036 RMK A01 T00161129  RH  033%=      5-min Rain = 0
KHA2 120540Z 05004KT 02/M13 A3036 RMK A01 T00161127  RH  034%=      5-min Rain = 0
KHA2 120541Z 05004KT 02/M13 A3036 RMK A01 T00161127  RH  034%=      5-min Rain = 0
KHA2 120542Z 05004KT 02/M13 A3036 RMK A01 T00161129  RH  033%=      5-min Rain = 0
KHA2 120543Z 05004KT 02/M13 A3036 RMK A01 T00151130  RH  033%=      5-min Rain = 0
KHA2 120544Z 05004KT 01/M13 A3036 RMK A01 T00141129  RH  034%=      5-min Rain = 0
KHA2 120545Z 05004KT 01/M13 A3036 RMK A01 T00141129  RH  034%=      5-min Rain = 0
KHA2 120546Z 04004KT 01/M13 A3036 RMK A01 T00131130  RH  034%=      5-min Rain = 0
KHA2 120547Z 04004KT 01/M13 A3036 RMK A01 T00121132  RH  033%=      5-min Rain = 0
KHA2 120548Z 04004KT 01/M14 A3036 RMK A01 T00111135  RH  033%=      5-min Rain = 0
KHA2 120549Z 03004KT 01/M14 A3036 RMK A01 T00091137  RH  033%=      5-min Rain = 0
KHA2 120550Z 03004KT 01/M14 A3036 RMK A01 T00081137  RH  033%=      5-min Rain = 0
KHA2 120551Z 03004KT 01/M14 A3036 RMK A01 T00081136  RH  033%=      5-min Rain = 0
KHA2 120552Z 03003KT 01/M14 A3036 RMK A01 T00081136  RH  033%=      5-min Rain = 0
KHA2 120553Z 03003KT 01/M14 A3036 RMK A01 T00081136  RH  033%=      5-min Rain = 0
KHA2 120554Z 03003KT 01/M14 A3036 RMK A01 T00071136  RH  033%=      5-min Rain = 0
KHA2 120555Z 03003KT 01/M14 A3036 RMK A01 T00071135  RH  034%=      5-min Rain = 0
KHA2 120556Z 03003KT 01/M13 A3036 RMK A01 T00081133  RH  034%=      5-min Rain = 0
KHA2 120557Z 03003KT 01/M13 A3036 RMK A01 T00081133  RH  034%=      5-min Rain = 0
KHA2 120558Z 03003KT 01/M13 A3036 RMK A01 T00081131  RH  035%=      5-min Rain = 0
KHA2 120559Z 03003KT 01/M13 A3036 RMK A01 T00091128  RH  035%=      5-min Rain = 0
KHA2 120600Z 03003KT 01/M13 A3036 RMK A01 T00101127  RH  035%=      5-min Rain = 0
KHA2 120601Z 02003KT 01/M13 A3036 RMK A01 T00101125  RH  036%=      5-min Rain = 0
KHA2 120602Z 02003KT 01/M12 A3036 RMK A01 T00111124  RH  036%=      5-min Rain = 0
KHA2 120603Z 02003KT 01/M13 A3037 RMK A01 T00111126  RH  035%=      5-min Rain = 0
KHA2 120604Z 02003KT 01/M13 A3037 RMK A01 T00101127  RH  035%=      5-min Rain = 0
KHA2 120605Z 02003KT 01/M13 A3037 RMK A01 T00101126  RH  036%=      5-min Rain = 0
KHA2 120606Z 02003KT 01/M12 A3037 RMK A01 T00101124  RH  036%=      5-min Rain = 0
KHA2 120607Z 02003KT 01/M13 A3037 RMK A01 T00111125  RH  036%=      5-min Rain = 0
KHA2 120608Z 02003KT 01/M13 A3037 RMK A01 T00111126  RH  035%=      5-min Rain = 0
KHA2 120609Z 03003KT 01/M13 A3037 RMK A01 T00101129  RH  035%=      5-min Rain = 0
KHA2 120610Z 03003KT 01/M13 A3036 RMK A01 T00081129  RH  035%=      5-min Rain = 0
KHA2 120611Z 03003KT 01/M13 A3036 RMK A01 T00081129  RH  035%=      5-min Rain = 0
KHA2 120612Z 03003KT 01/M13 A3036 RMK A01 T00071131  RH  035%=      5-min Rain = 0
KHA2 120613Z 04003KT 01/M13 A3036 RMK A01 T00071126  RH  036%=      5-min Rain = 0
KHA2 120614Z 04003KT 01/M12 A3036 RMK A01 T00081123  RH  037%=      5-min Rain = 0
KHA2 120615Z 04003KT 01/M12 A3036 RMK A01 T00091124  RH  036%=      5-min Rain = 0
KHA2 120616Z 05003KT 01/M12 A3037 RMK A01 T00091121  RH  037%=      5-min Rain = 0
KHA2 120617Z 05004KT 01/M12 A3037 RMK A01 T00111117  RH  038%=      5-min Rain = 0
KHA2 120618Z 06004KT 01/M11 A3037 RMK A01 T00131114  RH  038%=      5-min Rain = 0
KHA2 120619Z 06004KT 02/M11 A3037 RMK A01 T00151112  RH  038%=      5-min Rain = 0
KHA2 120620Z 06005KT 02/M11 A3036 RMK A01 T00171111  RH  038%=      5-min Rain = 0
KHA2 120621Z 06005KT 02/M11 A3036 RMK A01 T00181108  RH  039%=      5-min Rain = 0
KHA2 120622Z 06005KT 02/M10 A3036 RMK A01 T00181102  RH  040%=      5-min Rain = 0
KHA2 120623Z 06005KT 02/M10 A3036 RMK A01 T00191099  RH  041%=      5-min Rain = 0
KHA2 120624Z 06005KT 02/M10 A3036 RMK A01 T00201099  RH  041%=      5-min Rain = 0
KHA2 120625Z 06005KT 02/M10 A3036 RMK A01 T00201098  RH  041%=      5-min Rain = 0
KHA2 120626Z 06005KT 02/M10 A3037 RMK A01 T00201096  RH  042%=      5-min Rain = 0
KHA2 120627Z 06006KT 02/M10 A3037 RMK A01 T00191097  RH  042%=      5-min Rain = 0
KHA2 120628Z 06005KT 02/M10 A3037 RMK A01 T00181099  RH  042%=      5-min Rain = 0
KHA2 120629Z 06005KT 02/M10 A3037 RMK A01 T00181096  RH  042%=      5-min Rain = 0
KHA2 120630Z 06005KT 02/M10 A3037 RMK A01 T00171096  RH  043%=      5-min Rain = 0
KHA2 120631Z 06005KT 02/M10 A3037 RMK A01 T00171096  RH  043%=      5-min Rain = 0
KHA2 120632Z 06005KT 02/M10 A3037 RMK A01 T00161095  RH  043%=      5-min Rain = 0
KHA2 120633Z 06004KT 02/M10 A3037 RMK A01 T00151096  RH  043%=      5-min Rain = 0
KHA2 120634Z 06004KT 01/M10 A3037 RMK A01 T00141104  RH  041%=      5-min Rain = 0
KHA2 120635Z 06004KT 01/M11 A3037 RMK A01 T00121114  RH  038%=      5-min Rain = 0
KHA2 120636Z 05004KT 01/M13 A3037 RMK A01 T00091125  RH  036%=      5-min Rain = 0
KHA2 120637Z 05004KT 01/M13 A3037 RMK A01 T00061128  RH  036%=      5-min Rain = 0
KHA2 120638Z 05003KT 00/M13 A3037 RMK A01 T00041127  RH  037%=      5-min Rain = 0
KHA2 120639Z 05003KT 00/M12 A3037 RMK A01 T00041120  RH  039%=      5-min Rain = 0
KHA2 120640Z 05003KT 01/M12 A3037 RMK A01 T00061115  RH  040%=      5-min Rain = 0
KHA2 120641Z 05003KT 01/M11 A3037 RMK A01 T00081113  RH  040%=      5-min Rain = 0
KHA2 120642Z 04003KT 01/M12 A3037 RMK A01 T00081115  RH  039%=      5-min Rain = 0
KHA2 120643Z 04002KT 01/M12 A3037 RMK A01 T00091115  RH  039%=      5-min Rain = 0
KHA2 120644Z 05002KT 01/M12 A3037 RMK A01 T00081119  RH  038%=      5-min Rain = 0
KHA2 120645Z 05003KT 01/M12 A3037 RMK A01 T00071119  RH  038%=      5-min Rain = 0
KHA2 120646Z 05003KT 01/M11 A3037 RMK A01 T00071114  RH  040%=      5-min Rain = 0
KHA2 120647Z 05003KT 01/M11 A3037 RMK A01 T00081112  RH  040%=      5-min Rain = 0
KHA2 120648Z 05003KT 01/M11 A3037 RMK A01 T00091110  RH  041%=      5-min Rain = 0
KHA2 120649Z 05003KT 01/M11 A3037 RMK A01 T00101108  RH  041%=      5-min Rain = 0
KHA2 120650Z 05003KT 01/M11 A3037 RMK A01 T00111107  RH  041%=      5-min Rain = 0
KHA2 120651Z 05003KT 01/M11 A3037 RMK A01 T00121106  RH  041%=      5-min Rain = 0
KHA2 120652Z 05003KT 01/M11 A3037 RMK A01 T00131106  RH  041%=      5-min Rain = 0
KHA2 120653Z 04002KT 01/M11 A3037 RMK A01 T00131106  RH  041%=      5-min Rain = 0
KHA2 120654Z 03002KT 01/M11 A3037 RMK A01 T00141107  RH  040%=      5-min Rain = 0
KHA2 120655Z 03002KT 01/M11 A3037 RMK A01 T00141106  RH  040%=      5-min Rain = 0
KHA2 120656Z 03002KT 01/M11 A3037 RMK A01 T00141106  RH  040%=      5-min Rain = 0
KHA2 120657Z 03002KT 01/M11 A3037 RMK A01 T00141105  RH  041%=      5-min Rain = 0
KHA2 120658Z 02002KT 02/M10 A3037 RMK A01 T00151104  RH  041%=      5-min Rain = 0
KHA2 120659Z 02002KT 01/M11 A3037 RMK A01 T00141110  RH  039%=      5-min Rain = 0
KHA2 120700Z 02001KT 01/M11 A3037 RMK A01 T00131111  RH  039%=      5-min Rain = 0
KHA2 120701Z 01001KT 01/M11 A3037 RMK A01 T00121111  RH  039%=      5-min Rain = 0
KHA2 120702Z 03001KT 01/M11 A3037 RMK A01 T00121108  RH  040%=      5-min Rain = 0
KHA2 120703Z 01001KT 01/M11 A3037 RMK A01 T00121107  RH  041%=      5-min Rain = 0
KHA2 120704Z 02001KT 01/M11 A3037 RMK A01 T00111113  RH  039%=      5-min Rain = 0
KHA2 120705Z 02001KT 01/M11 A3037 RMK A01 T00091112  RH  040%=      5-min Rain = 0
KHA2 120706Z 03001KT 01/M11 A3037 RMK A01 T00091109  RH  041%=      5-min Rain = 0
KHA2 120707Z 06001KT 01/M11 A3037 RMK A01 T00091107  RH  042%=      5-min Rain = 0
KHA2 120708Z 06001KT 01/M11 A3037 RMK A01 T00091106  RH  042%=      5-min Rain = 0
KHA2 120709Z 06002KT 01/M10 A3037 RMK A01 T00091103  RH  043%=      5-min Rain = 0
KHA2 120710Z 06002KT 01/M10 A3037 RMK A01 T00101102  RH  043%=      5-min Rain = 0
KHA2 120711Z 05002KT 01/M10 A3037 RMK A01 T00101100  RH  044%=      5-min Rain = 0
KHA2 120712Z 05002KT 01/M10 A3037 RMK A01 T00121099  RH  044%=      5-min Rain = 0
KHA2 120713Z 05002KT 01/M10 A3037 RMK A01 T00131100  RH  043%=      5-min Rain = 0
KHA2 120714Z 05002KT 01/M10 A3037 RMK A01 T00131102  RH  042%=      5-min Rain = 0
KHA2 120715Z 05002KT 01/M10 A3037 RMK A01 T00131104  RH  042%=      5-min Rain = 0
KHA2 120716Z 04002KT 01/M11 A3037 RMK A01 T00121105  RH  042%=      5-min Rain = 0
KHA2 120717Z 04002KT 01/M10 A3037 RMK A01 T00121102  RH  042%=      5-min Rain = 0
KHA2 120718Z 03002KT 01/M10 A3037 RMK A01 T00131101  RH  042%=      5-min Rain = 0
KHA2 120719Z 03002KT 01/M10 A3037 RMK A01 T00141101  RH  042%=      5-min Rain = 0
KHA2 120720Z 02002KT 01/M10 A3037 RMK A01 T00141101  RH  042%=      5-min Rain = 0
KHA2 120721Z 36002KT 02/M10 A3037 RMK A01 T00151103  RH  041%=      5-min Rain = 0
KHA2 120722Z 35002KT 01/M10 A3037 RMK A01 T00141102  RH  042%=      5-min Rain = 0
KHA2 120723Z 34002KT 01/M10 A3037 RMK A01 T00141103  RH  041%=      5-min Rain = 0
KHA2 120724Z 34002KT 01/M11 A3037 RMK A01 T00121110  RH  040%=      5-min Rain = 0
KHA2 120725Z 33002KT 01/M11 A3037 RMK A01 T00091113  RH  040%=      5-min Rain = 0
KHA2 120726Z 33002KT 01/M12 A3037 RMK A01 T00061116  RH  039%=      5-min Rain = 0
KHA2 120727Z 33002KT 00/M12 A3037 RMK A01 T00041117  RH  040%=      5-min Rain = 0
KHA2 120728Z 33002KT 00/M12 A3037 RMK A01 T00021116  RH  041%=      5-min Rain = 0
KHA2 120729Z 34001KT 00/M11 A3037 RMK A01 T00021112  RH  042%=      5-min Rain = 0
KHA2 120730Z 35002KT 00/M11 A3037 RMK A01 T00031113  RH  042%=      5-min Rain = 0
KHA2 120731Z 01001KT 00/M11 A3037 RMK A01 T00021114  RH  041%=      5-min Rain = 0
KHA2 120732Z 00001KT 00/M11 A3037 RMK A01 T00021110  RH  043%=      5-min Rain = 0
KHA2 120733Z 35001KT 00/M11 A3037 RMK A01 T00021112  RH  042%=      5-min Rain = 0
KHA2 120734Z 34001KT 00/M11 A3037 RMK A01 T00011114  RH  042%=      5-min Rain = 0
KHA2 120735Z 35001KT 00/M11 A3037 RMK A01 T00011113  RH  042%=      5-min Rain = 0
KHA2 120736Z 02001KT 00/11 A3037 RMK A01 T00000-113  RH  042%=      5-min Rain = 0
KHA2 120737Z 03001KT 00/11 A3037 RMK A01 T00000-109  RH  043%=      5-min Rain = 0
KHA2 120738Z 05001KT 00/M11 A3037 RMK A01 T00011108  RH  044%=      5-min Rain = 0
KHA2 120739Z 07002KT 00/M11 A3037 RMK A01 T00011105  RH  045%=      5-min Rain = 0
KHA2 120740Z 07002KT 00/M10 A3037 RMK A01 T00021103  RH  045%=      5-min Rain = 0
KHA2 120741Z 07002KT 00/M10 A3037 RMK A01 T00021103  RH  045%=      5-min Rain = 0
KHA2 120742Z 08002KT 00/M10 A3037 RMK A01 T00021103  RH  045%=      5-min Rain = 0
KHA2 120743Z 08002KT 00/M10 A3037 RMK A01 T00021103  RH  045%=      5-min Rain = 0
KHA2 120744Z 08002KT 00/M10 A3037 RMK A01 T00021103  RH  045%=      5-min Rain = 0
KHA2 120745Z 08002KT 00/M10 A3037 RMK A01 T00021104  RH  045%=      5-min Rain = 0
KHA2 120746Z 08002KT 00/M10 A3037 RMK A01 T00021103  RH  045%=      5-min Rain = 0
KHA2 120747Z 07001KT 00/M10 A3037 RMK A01 T00031102  RH  045%=      5-min Rain = 0
KHA2 120748Z 07001KT 00/M10 A3037 RMK A01 T00031104  RH  045%=      5-min Rain = 0
KHA2 120749Z 07001KT 00/M11 A3037 RMK A01 T00031106  RH  044%=      5-min Rain = 0
KHA2 120750Z 07001KT 00/M11 A3037 RMK A01 T00031106  RH  044%=      5-min Rain = 0
KHA2 120751Z 07001KT 00/M11 A3037 RMK A01 T00031107  RH  043%=      5-min Rain = 0
KHA2 120752Z 06001KT 00/M11 A3037 RMK A01 T00021112  RH  042%=      5-min Rain = 0
KHA2 120753Z 05001KT 00/12 A3037 RMK A01 T00000-120  RH  040%=      5-min Rain = 0
KHA2 120754Z 05001KT M00/M12 A3037 RMK A01 T10011116  RH  042%=      5-min Rain = 0
KHA2 120755Z 04001KT M00/M11 A3037 RMK A01 T10011113  RH  043%=      5-min Rain = 0
KHA2 120756Z 04001KT M00/M11 A3037 RMK A01 T10021113  RH  043%=      5-min Rain = 0
KHA2 120757Z 03001KT M00/M11 A3037 RMK A01 T10011111  RH  044%=      5-min Rain = 0
KHA2 120758Z 02001KT 00/11 A3037 RMK A01 T00-00-108  RH  044%=      5-min Rain = 0
KHA2 120759Z 02001KT 00/11 A3037 RMK A01 T00000-111  RH  043%=      5-min Rain = 0
KHA2 120800Z 36001KT M00/M11 A3037 RMK A01 T10011110  RH  043%=      5-min Rain = 0
KHA2 120801Z 34001KT M00/M11 A3037 RMK A01 T10011112  RH  043%=      5-min Rain = 0
KHA2 120802Z 34001KT M00/M12 A3037 RMK A01 T10011116  RH  042%=      5-min Rain = 0
KHA2 120803Z 32001KT M00/M11 A3037 RMK A01 T10011114  RH  042%=      5-min Rain = 0
KHA2 120804Z 32001KT 00/11 A3037 RMK A01 T00-00-111  RH  043%=      5-min Rain = 0
KHA2 120805Z 31001KT 00/11 A3037 RMK A01 T00-00-114  RH  042%=      5-min Rain = 0
KHA2 120806Z 30001KT 00/M11 A3037 RMK A01 T00011107  RH  044%=      5-min Rain = 0
KHA2 120807Z 31001KT 00/M10 A3037 RMK A01 T00041101  RH  045%=      5-min Rain = 0
KHA2 120808Z 31000KT 01/M10 A3037 RMK A01 T00061101  RH  045%=      5-min Rain = 0
KHA2 120809Z 33000KT 01/M11 A3037 RMK A01 T00061105  RH  043%=      5-min Rain = 0
KHA2 120810Z 36001KT 01/M10 A3037 RMK A01 T00061103  RH  044%=      5-min Rain = 0
KHA2 120811Z 03000KT 01/M10 A3037 RMK A01 T00051098  RH  046%=      5-min Rain = 0
KHA2 120812Z 03001KT 01/M10 A3037 RMK A01 T00061096  RH  046%=      5-min Rain = 0
KHA2 120813Z 03001KT 01/M10 A3037 RMK A01 T00061097  RH  046%=      5-min Rain = 0
KHA2 120814Z 04001KT 01/M10 A3037 RMK A01 T00071096  RH  046%=      5-min Rain = 0
KHA2 120815Z 05001KT 01/M09 A3037 RMK A01 T00081093  RH  047%=      5-min Rain = 0
KHA2 120816Z 06001KT 01/M09 A3037 RMK A01 T00081094  RH  046%=      5-min Rain = 0
KHA2 120817Z 07001KT 01/M10 A3037 RMK A01 T00081097  RH  045%=      5-min Rain = 0
KHA2 120818Z 07001KT 01/M10 A3037 RMK A01 T00081095  RH  046%=      5-min Rain = 0
KHA2 120819Z 09001KT 01/M10 A3037 RMK A01 T00081096  RH  046%=      5-min Rain = 0
KHA2 120820Z 08001KT 01/M10 A3037 RMK A01 T00071096  RH  046%=      5-min Rain = 0
KHA2 120821Z 07000KT 01/M09 A3037 RMK A01 T00071094  RH  047%=      5-min Rain = 0
KHA2 120822Z 07000KT 01/M09 A3037 RMK A01 T00071093  RH  047%=      5-min Rain = 0
KHA2 120823Z 06001KT 01/M09 A3036 RMK A01 T00081092  RH  047%=      5-min Rain = 0
KHA2 120824Z 06001KT 01/M09 A3036 RMK A01 T00091090  RH  048%=      5-min Rain = 0
KHA2 120825Z 05001KT 01/M09 A3036 RMK A01 T00101091  RH  047%=      5-min Rain = 0
KHA2 120826Z 05001KT 01/M09 A3036 RMK A01 T00101091  RH  047%=      5-min Rain = 0
KHA2 120827Z 07001KT 01/M09 A3036 RMK A01 T00101091  RH  047%=      5-min Rain = 0
KHA2 120828Z 07001KT 01/M09 A3036 RMK A01 T00101091  RH  047%=      5-min Rain = 0
KHA2 120829Z 07001KT 01/M09 A3037 RMK A01 T00101092  RH  046%=      5-min Rain = 0
KHA2 120830Z 07000KT 01/M09 A3037 RMK A01 T00101092  RH  046%=      5-min Rain = 0
KHA2 120831Z 00000KT 01/M09 A3037 RMK A01 T00091094  RH  046%=      5-min Rain = 0
KHA2 120832Z 00000KT 01/M10 A3037 RMK A01 T00091097  RH  045%=      5-min Rain = 0
KHA2 120833Z 00000KT 01/M10 A3037 RMK A01 T00081099  RH  045%=      5-min Rain = 0
KHA2 120834Z 29000KT 01/M09 A3037 RMK A01 T00081093  RH  047%=      5-min Rain = 0
KHA2 120835Z 29001KT 01/M09 A3037 RMK A01 T00091092  RH  047%=      5-min Rain = 0
KHA2 120836Z 28001KT 01/M09 A3037 RMK A01 T00101094  RH  046%=      5-min Rain = 0
KHA2 120837Z 28001KT 01/M10 A3037 RMK A01 T00101095  RH  045%=      5-min Rain = 0
KHA2 120838Z 28000KT 01/M09 A3037 RMK A01 T00101093  RH  046%=      5-min Rain = 0
KHA2 120839Z 28000KT 01/M09 A3037 RMK A01 T00101093  RH  046%=      5-min Rain = 0
KHA2 120840Z 00000KT 01/M09 A3036 RMK A01 T00091092  RH  047%=      5-min Rain = 0
KHA2 120841Z 00000KT 01/M09 A3036 RMK A01 T00091091  RH  048%=      5-min Rain = 0
KHA2 120842Z 00000KT 01/M09 A3036 RMK A01 T00091092  RH  047%=      5-min Rain = 0
KHA2 120843Z 00000KT 01/M09 A3036 RMK A01 T00091091  RH  047%=      5-min Rain = 0
KHA2 120844Z 00000KT 01/M09 A3036 RMK A01 T00091092  RH  047%=      5-min Rain = 0
KHA2 120845Z 00000KT 01/M09 A3036 RMK A01 T00091093  RH  047%=      5-min Rain = 0
KHA2 120846Z 00000KT 01/M10 A3036 RMK A01 T00061096  RH  046%=      5-min Rain = 0
KHA2 120847Z 00000KT 00/M10 A3036 RMK A01 T00031099  RH  046%=      5-min Rain = 0
KHA2 120848Z 00000KT 00/M10 A3036 RMK A01 T00011101  RH  046%=      5-min Rain = 0
KHA2 120849Z 00000KT 00/10 A3036 RMK A01 T00000-101  RH  047%=      5-min Rain = 0
KHA2 120850Z 00000KT 00/10 A3036 RMK A01 T00-00-99  RH  047%=      5-min Rain = 0
KHA2 120851Z 00000KT 00/10 A3036 RMK A01 T00-00-100  RH  047%=      5-min Rain = 0
KHA2 120852Z 00000KT M00/M10 A3036 RMK A01 T10021102  RH  047%=      5-min Rain = 0
KHA2 120853Z 26001KT M00/M10 A3036 RMK A01 T10021101  RH  047%=      5-min Rain = 0
KHA2 120854Z 25002KT M00/M10 A3036 RMK A01 T10031101  RH  047%=      5-min Rain = 0
KHA2 120855Z 25003KT M00/M11 A3036 RMK A01 T10031105  RH  046%=      5-min Rain = 0
KHA2 120856Z 25004KT M01/M11 A3036 RMK A01 T10061111  RH  045%=      5-min Rain = 0
KHA2 120857Z 25006KT M01/M12 A3036 RMK A01 T10111115  RH  045%=      5-min Rain = 0
KHA2 120858Z 25007KT M02/M12 A3036 RMK A01 T10151117  RH  046%=      5-min Rain = 0
KHA2 120859Z 25007KT M02/M12 A3036 RMK A01 T10181117  RH  047%=      5-min Rain = 0
KHA2 120900Z 26008KT M02/M12 A3036 RMK A01 T10191116  RH  047%=      5-min Rain = 0
KHA2 120901Z 26007KT M02/M12 A3036 RMK A01 T10191115  RH  048%=      5-min Rain = 0
KHA2 120902Z 26006KT M02/M12 A3036 RMK A01 T10191116  RH  047%=      5-min Rain = 0
KHA2 120903Z 26006KT M02/M12 A3036 RMK A01 T10181116  RH  047%=      5-min Rain = 0
KHA2 120904Z 26006KT M02/M12 A3036 RMK A01 T10181115  RH  047%=      5-min Rain = 0
KHA2 120905Z 26005KT M02/M11 A3036 RMK A01 T10171114  RH  048%=      5-min Rain = 0
KHA2 120906Z 26004KT M02/M11 A3036 RMK A01 T10161111  RH  048%=      5-min Rain = 0
KHA2 120907Z 27004KT M02/M11 A3036 RMK A01 T10151110  RH  049%=      5-min Rain = 0
KHA2 120908Z 27004KT M01/M11 A3036 RMK A01 T10141107  RH  049%=      5-min Rain = 0
KHA2 120909Z 26004KT M01/M11 A3036 RMK A01 T10131106  RH  049%=      5-min Rain = 0
KHA2 120910Z 26004KT M01/M11 A3036 RMK A01 T10121105  RH  049%=      5-min Rain = 0
KHA2 120911Z 26004KT M01/M11 A3036 RMK A01 T10121108  RH  048%=      5-min Rain = 0
KHA2 120912Z 26004KT M01/M11 A3036 RMK A01 T10131114  RH  046%=      5-min Rain = 0
KHA2 120913Z 26004KT M01/M11 A3036 RMK A01 T10141113  RH  047%=      5-min Rain = 0
KHA2 120914Z 26004KT M01/M11 A3036 RMK A01 T10141110  RH  048%=      5-min Rain = 0
KHA2 120915Z 26004KT M01/M11 A3036 RMK A01 T10131108  RH  048%=      5-min Rain = 0
KHA2 120916Z 26004KT M01/M11 A3036 RMK A01 T10131108  RH  048%=      5-min Rain = 0
KHA2 120917Z 26005KT M01/M11 A3036 RMK A01 T10131109  RH  048%=      5-min Rain = 0
KHA2 120918Z 25005KT M01/M11 A3035 RMK A01 T10131109  RH  048%=      5-min Rain = 0
KHA2 120919Z 25005KT M01/M11 A3035 RMK A01 T10131106  RH  049%=      5-min Rain = 0
KHA2 120920Z 25005KT M01/M10 A3035 RMK A01 T10121102  RH  050%=      5-min Rain = 0
KHA2 120921Z 26005KT M01/M10 A3035 RMK A01 T10121103  RH  050%=      5-min Rain = 0
KHA2 120922Z 26005KT M01/M10 A3035 RMK A01 T10121104  RH  050%=      5-min Rain = 0
KHA2 120923Z 26005KT M01/M10 A3035 RMK A01 T10121104  RH  050%=      5-min Rain = 0
KHA2 120924Z 25005KT M01/M10 A3035 RMK A01 T10121103  RH  050%=      5-min Rain = 0
KHA2 120925Z 25005KT M01/M10 A3035 RMK A01 T10111102  RH  050%=      5-min Rain = 0
KHA2 120926Z 25005KT M01/M10 A3035 RMK A01 T10101102  RH  050%=      5-min Rain = 0
KHA2 120927Z 25005KT M01/M10 A3035 RMK A01 T10091101  RH  050%=      5-min Rain = 0
KHA2 120928Z 25005KT M01/M10 A3035 RMK A01 T10091101  RH  049%=      5-min Rain = 0
KHA2 120929Z 25005KT M01/M10 A3035 RMK A01 T10091102  RH  049%=      5-min Rain = 0
KHA2 120930Z 26005KT M01/M10 A3035 RMK A01 T10091102  RH  049%=      5-min Rain = 0
KHA2 120931Z 26005KT M01/M10 A3035 RMK A01 T10091101  RH  050%=      5-min Rain = 0
KHA2 120932Z 27005KT M01/M10 A3035 RMK A01 T10091101  RH  050%=      5-min Rain = 0
KHA2 120933Z 26005KT M01/M10 A3035 RMK A01 T10081101  RH  050%=      5-min Rain = 0
KHA2 120934Z 26004KT M01/M10 A3035 RMK A01 T10071100  RH  050%=      5-min Rain = 0
KHA2 120935Z 27004KT M01/M10 A3035 RMK A01 T10071100  RH  049%=      5-min Rain = 0
KHA2 120936Z 28004KT M01/M10 A3035 RMK A01 T10071101  RH  049%=      5-min Rain = 0
KHA2 120937Z 27004KT M01/M10 A3035 RMK A01 T10071100  RH  049%=      5-min Rain = 0
KHA2 120938Z 27003KT M01/M10 A3035 RMK A01 T10071101  RH  049%=      5-min Rain = 0
KHA2 120939Z 26003KT M01/M10 A3035 RMK A01 T10071103  RH  048%=      5-min Rain = 0
KHA2 120940Z 26003KT M01/M10 A3035 RMK A01 T10071100  RH  049%=      5-min Rain = 0
KHA2 120941Z 26003KT M01/M10 A3035 RMK A01 T10071098  RH  050%=      5-min Rain = 0
KHA2 120942Z 26003KT M01/M09 A3035 RMK A01 T10051094  RH  051%=      5-min Rain = 0
KHA2 120943Z 26004KT M00/M09 A3035 RMK A01 T10041092  RH  051%=      5-min Rain = 0
KHA2 120944Z 26004KT M00/M09 A3035 RMK A01 T10031094  RH  050%=      5-min Rain = 0
KHA2 120945Z 27004KT M00/M09 A3035 RMK A01 T10031093  RH  051%=      5-min Rain = 0
KHA2 120946Z 27004KT M00/M09 A3035 RMK A01 T10031093  RH  051%=      5-min Rain = 0
KHA2 120947Z 27004KT M00/M09 A3035 RMK A01 T10021092  RH  051%=      5-min Rain = 0
KHA2 120948Z 27004KT M00/M09 A3035 RMK A01 T10011093  RH  050%=      5-min Rain = 0
KHA2 120949Z 27004KT 00/09 A3035 RMK A01 T00-00-94  RH  049%=      5-min Rain = 0
KHA2 120950Z 27004KT 00/09 A3035 RMK A01 T00000-93  RH  049%=      5-min Rain = 0
KHA2 120951Z 27004KT 00/09 A3035 RMK A01 T00-00-94  RH  049%=      5-min Rain = 0
KHA2 120952Z 27003KT 00/10 A3035 RMK A01 T00000-95  RH  049%=      5-min Rain = 0
KHA2 120953Z 27003KT 00/09 A3035 RMK A01 T00-00-94  RH  049%=      5-min Rain = 0
KHA2 120954Z 28003KT 00/09 A3035 RMK A01 T00000-93  RH  050%=      5-min Rain = 0
KHA2 120955Z 28003KT 00/M09 A3035 RMK A01 T00011094  RH  049%=      5-min Rain = 0
KHA2 120956Z 28003KT 00/10 A3035 RMK A01 T00000-97  RH  048%=      5-min Rain = 0
KHA2 120957Z 28003KT M00/M10 A3035 RMK A01 T10011098  RH  048%=      5-min Rain = 0
KHA2 120958Z 27003KT M00/M10 A3035 RMK A01 T10021100  RH  047%=      5-min Rain = 0
KHA2 120959Z 27003KT M00/M10 A3035 RMK A01 T10031102  RH  047%=      5-min Rain = 0
KHA2 121000Z 27003KT M00/M10 A3035 RMK A01 T10031101  RH  048%=      5-min Rain = 0
KHA2 121001Z 27003KT M00/M10 A3035 RMK A01 T10031099  RH  048%=      5-min Rain = 0
KHA2 121002Z 27003KT M00/M10 A3035 RMK A01 T10031100  RH  048%=      5-min Rain = 0
KHA2 121003Z 27003KT M00/M10 A3035 RMK A01 T10041102  RH  048%=      5-min Rain = 0
KHA2 121004Z 27003KT M01/M10 A3035 RMK A01 T10051102  RH  048%=      5-min Rain = 0
KHA2 121005Z 27003KT M01/M10 A3035 RMK A01 T10061103  RH  048%=      5-min Rain = 0
KHA2 121006Z 27003KT M01/M10 A3035 RMK A01 T10061101  RH  049%=      5-min Rain = 0
KHA2 121007Z 28003KT M01/M10 A3035 RMK A01 T10061099  RH  049%=      5-min Rain = 0
KHA2 121008Z 28003KT M01/M10 A3035 RMK A01 T10061101  RH  049%=      5-min Rain = 0
KHA2 121009Z 28003KT M01/M10 A3035 RMK A01 T10061103  RH  048%=      5-min Rain = 0
KHA2 121010Z 27003KT M01/M10 A3035 RMK A01 T10061103  RH  048%=      5-min Rain = 0
KHA2 121011Z 27003KT M01/M10 A3035 RMK A01 T10061103  RH  048%=      5-min Rain = 0
KHA2 121012Z 27003KT M01/M10 A3035 RMK A01 T10071103  RH  048%=      5-min Rain = 0
KHA2 121013Z 27003KT M01/M10 A3036 RMK A01 T10061101  RH  049%=      5-min Rain = 0
KHA2 121014Z 26003KT M01/M10 A3036 RMK A01 T10061102  RH  049%=      5-min Rain = 0
KHA2 121015Z 26003KT M01/M10 A3036 RMK A01 T10071102  RH  048%=      5-min Rain = 0
KHA2 121016Z 26003KT M01/M10 A3036 RMK A01 T10071103  RH  048%=      5-min Rain = 0
KHA2 121017Z 26003KT M01/M10 A3036 RMK A01 T10071101  RH  049%=      5-min Rain = 0
KHA2 121018Z 27003KT M01/M10 A3036 RMK A01 T10071100  RH  049%=      5-min Rain = 0
KHA2 121019Z 27003KT M01/M10 A3035 RMK A01 T10061099  RH  050%=      5-min Rain = 0
KHA2 121020Z 27003KT M01/M10 A3035 RMK A01 T10061102  RH  048%=      5-min Rain = 0
KHA2 121021Z 27003KT M01/M10 A3035 RMK A01 T10061101  RH  049%=      5-min Rain = 0
KHA2 121022Z 27003KT M01/M10 A3036 RMK A01 T10061102  RH  049%=      5-min Rain = 0
KHA2 121023Z 27003KT M01/M10 A3036 RMK A01 T10071101  RH  049%=      5-min Rain = 0
KHA2 121024Z 27003KT M01/M10 A3036 RMK A01 T10071099  RH  050%=      5-min Rain = 0
KHA2 121025Z 27003KT M01/M10 A3036 RMK A01 T10061103  RH  048%=      5-min Rain = 0
KHA2 121026Z 27003KT M01/M10 A3036 RMK A01 T10061100  RH  049%=      5-min Rain = 0
KHA2 121027Z 27003KT M01/M10 A3036 RMK A01 T10061096  RH  050%=      5-min Rain = 0
KHA2 121028Z 26004KT M00/M09 A3036 RMK A01 T10031092  RH  051%=      5-min Rain = 0
KHA2 121029Z 26004KT M00/M09 A3036 RMK A01 T10021091  RH  051%=      5-min Rain = 0
KHA2 121030Z 26004KT M00/M09 A3036 RMK A01 T10021091  RH  051%=      5-min Rain = 0
KHA2 121031Z 26004KT M00/M09 A3036 RMK A01 T10021092  RH  051%=      5-min Rain = 0
KHA2 121032Z 27004KT M00/M09 A3036 RMK A01 T10011091  RH  051%=      5-min Rain = 0
KHA2 121033Z 27004KT 00/09 A3036 RMK A01 T00000-92  RH  050%=      5-min Rain = 0
KHA2 121034Z 27004KT 00/09 A3036 RMK A01 T00000-92  RH  050%=      5-min Rain = 0
KHA2 121035Z 27004KT 00/09 A3036 RMK A01 T00000-91  RH  050%=      5-min Rain = 0
KHA2 121036Z 27004KT 00/M09 A3036 RMK A01 T00011091  RH  050%=      5-min Rain = 0
KHA2 121037Z 27005KT 00/M09 A3036 RMK A01 T00011091  RH  050%=      5-min Rain = 0
KHA2 121038Z 26005KT 00/09 A3036 RMK A01 T00-00-94  RH  049%=      5-min Rain = 0
KHA2 121039Z 26005KT M00/M09 A3036 RMK A01 T10011094  RH  050%=      5-min Rain = 0
KHA2 121040Z 26005KT M00/M09 A3036 RMK A01 T10011094  RH  049%=      5-min Rain = 0
KHA2 121041Z 26004KT M00/M10 A3036 RMK A01 T10021096  RH  049%=      5-min Rain = 0
KHA2 121042Z 26004KT M00/M10 A3036 RMK A01 T10031096  RH  050%=      5-min Rain = 0
KHA2 121043Z 27004KT M00/M09 A3036 RMK A01 T10031093  RH  051%=      5-min Rain = 0
KHA2 121044Z 27004KT M00/M09 A3036 RMK A01 T10021092  RH  051%=      5-min Rain = 0
KHA2 121045Z 27004KT M00/M09 A3036 RMK A01 T10011092  RH  050%=      5-min Rain = 0
KHA2 121046Z 27004KT M00/M09 A3036 RMK A01 T10021092  RH  051%=      5-min Rain = 0
KHA2 121047Z 27004KT M00/M09 A3036 RMK A01 T10021091  RH  051%=      5-min Rain = 0
KHA2 121048Z 27004KT M00/M09 A3036 RMK A01 T10011090  RH  051%=      5-min Rain = 0
KHA2 121049Z 27003KT M00/M09 A3036 RMK A01 T10011090  RH  051%=      5-min Rain = 0
KHA2 121050Z 27003KT M00/M09 A3036 RMK A01 T10021091  RH  051%=      5-min Rain = 0
KHA2 121051Z 28003KT M00/M09 A3036 RMK A01 T10021091  RH  051%=      5-min Rain = 0
KHA2 121052Z 28003KT M00/M09 A3036 RMK A01 T10031094  RH  050%=      5-min Rain = 0
KHA2 121053Z 27003KT M00/M09 A3036 RMK A01 T10031092  RH  051%=      5-min Rain = 0
KHA2 121054Z 27003KT M00/M09 A3036 RMK A01 T10031091  RH  051%=      5-min Rain = 0
KHA2 121055Z 27003KT M00/M09 A3036 RMK A01 T10031093  RH  051%=      5-min Rain = 0
KHA2 121056Z 27002KT M00/M10 A3036 RMK A01 T10031095  RH  050%=      5-min Rain = 0
KHA2 121057Z 27002KT M00/M10 A3036 RMK A01 T10041100  RH  048%=      5-min Rain = 0
KHA2 121058Z 27003KT M01/M10 A3036 RMK A01 T10071101  RH  049%=      5-min Rain = 0
KHA2 121059Z 28002KT M01/M10 A3036 RMK A01 T10081096  RH  051%=      5-min Rain = 0
KHA2 121100Z 28002KT M01/M09 A3036 RMK A01 T10081094  RH  052%=      5-min Rain = 0
KHA2 121101Z 28002KT M01/M09 A3036 RMK A01 T10081092  RH  053%=      5-min Rain = 0
KHA2 121102Z 28002KT M01/M09 A3036 RMK A01 T10071093  RH  052%=      5-min Rain = 0
KHA2 121103Z 29002KT M01/M10 A3036 RMK A01 T10071095  RH  052%=      5-min Rain = 0
KHA2 121104Z 29002KT M01/M10 A3036 RMK A01 T10081095  RH  052%=      5-min Rain = 0
KHA2 121105Z 29001KT M01/M10 A3036 RMK A01 T10091097  RH  051%=      5-min Rain = 0
KHA2 121106Z 29001KT M01/M10 A3036 RMK A01 T10101099  RH  051%=      5-min Rain = 0
KHA2 121107Z 28001KT M01/M10 A3036 RMK A01 T10111099  RH  051%=      5-min Rain = 0
KHA2 121108Z 27000KT M01/M10 A3036 RMK A01 T10121100  RH  051%=      5-min Rain = 0
KHA2 121109Z 27000KT M01/M10 A3036 RMK A01 T10131101  RH  051%=      5-min Rain = 0
KHA2 121110Z 00000KT M01/M10 A3036 RMK A01 T10131102  RH  051%=      5-min Rain = 0
KHA2 121111Z 00000KT M01/M10 A3036 RMK A01 T10141102  RH  051%=      5-min Rain = 0
KHA2 121112Z 00000KT M01/M10 A3036 RMK A01 T10141103  RH  051%=      5-min Rain = 0
KHA2 121113Z 00000KT M02/M10 A3036 RMK A01 T10151104  RH  051%=      5-min Rain = 0
KHA2 121114Z 00000KT M02/M11 A3036 RMK A01 T10171106  RH  050%=      5-min Rain = 0
KHA2 121115Z 00000KT M02/M11 A3036 RMK A01 T10181108  RH  051%=      5-min Rain = 0
KHA2 121116Z 00000KT M02/M11 A3036 RMK A01 T10201108  RH  051%=      5-min Rain = 0
KHA2 121117Z 00000KT M02/M11 A3036 RMK A01 T10201107  RH  051%=      5-min Rain = 0
KHA2 121118Z 00000KT M02/M11 A3036 RMK A01 T10201106  RH  052%=      5-min Rain = 0
KHA2 121119Z 00000KT M02/M11 A3036 RMK A01 T10211106  RH  052%=      5-min Rain = 0
KHA2 121120Z 00000KT M02/M11 A3036 RMK A01 T10201105  RH  052%=      5-min Rain = 0
KHA2 121121Z 00000KT M02/M10 A3036 RMK A01 T10201104  RH  053%=      5-min Rain = 0
KHA2 121122Z 00000KT M02/M10 A3036 RMK A01 T10201103  RH  053%=      5-min Rain = 0
KHA2 121123Z 00000KT M02/M10 A3036 RMK A01 T10191102  RH  053%=      5-min Rain = 0
KHA2 121124Z 20000KT M02/M10 A3036 RMK A01 T10181101  RH  053%=      5-min Rain = 0
KHA2 121125Z 20001KT M02/M10 A3036 RMK A01 T10181104  RH  052%=      5-min Rain = 0
KHA2 121126Z 20000KT M02/M11 A3036 RMK A01 T10201110  RH  050%=      5-min Rain = 0
KHA2 121127Z 20000KT M02/M11 A3036 RMK A01 T10221113  RH  050%=      5-min Rain = 0
KHA2 121128Z 00000KT M02/M12 A3036 RMK A01 T10241119  RH  048%=      5-min Rain = 0
KHA2 121129Z 00000KT M03/M13 A3036 RMK A01 T10261128  RH  045%=      5-min Rain = 0
KHA2 121130Z 00000KT M03/M13 A3036 RMK A01 T10291134  RH  044%=      5-min Rain = 0
KHA2 121131Z 00000KT M03/M14 A3036 RMK A01 T10321139  RH  043%=      5-min Rain = 0
KHA2 121132Z 00000KT M03/M13 A3036 RMK A01 T10341129  RH  048%=      5-min Rain = 0
KHA2 121133Z 23000KT M04/M13 A3036 RMK A01 T10371131  RH  048%=      5-min Rain = 0
KHA2 121134Z 23001KT M04/M13 A3036 RMK A01 T10411128  RH  051%=      5-min Rain = 0
KHA2 121135Z 23001KT M04/M12 A3036 RMK A01 T10431118  RH  056%=      5-min Rain = 0
KHA2 121136Z 23001KT M04/M11 A3035 RMK A01 T10421113  RH  058%=      5-min Rain = 0
KHA2 121137Z 22001KT M04/M11 A3035 RMK A01 T10401108  RH  059%=      5-min Rain = 0
KHA2 121138Z 22001KT M04/M10 A3035 RMK A01 T10361102  RH  060%=      5-min Rain = 0
KHA2 121139Z 22001KT M03/M10 A3035 RMK A01 T10341100  RH  060%=      5-min Rain = 0
KHA2 121140Z 22001KT M03/M10 A3035 RMK A01 T10331100  RH  060%=      5-min Rain = 0
KHA2 121141Z 22001KT M03/M10 A3036 RMK A01 T10311098  RH  060%=      5-min Rain = 0
KHA2 121142Z 22001KT M03/M10 A3036 RMK A01 T10291097  RH  059%=      5-min Rain = 0
KHA2 121143Z 22001KT M03/M10 A3036 RMK A01 T10281098  RH  059%=      5-min Rain = 0
KHA2 121144Z 22001KT M03/M10 A3035 RMK A01 T10281100  RH  058%=      5-min Rain = 0
KHA2 121145Z 22001KT M03/M10 A3035 RMK A01 T10291100  RH  058%=      5-min Rain = 0
KHA2 121146Z 23001KT M03/M10 A3035 RMK A01 T10291098  RH  059%=      5-min Rain = 0
KHA2 121147Z 24001KT M03/M10 A3035 RMK A01 T10291097  RH  059%=      5-min Rain = 0
KHA2 121148Z 25001KT M03/M10 A3036 RMK A01 T10271097  RH  059%=      5-min Rain = 0
KHA2 121149Z 25001KT M03/M10 A3036 RMK A01 T10261098  RH  058%=      5-min Rain = 0
KHA2 121150Z 25001KT M03/M10 A3036 RMK A01 T10251100  RH  056%=      5-min Rain = 0
KHA2 121151Z 23001KT M02/M10 A3036 RMK A01 T10241101  RH  056%=      5-min Rain = 0
KHA2 121152Z 22001KT M02/M10 A3036 RMK A01 T10231101  RH  055%=      5-min Rain = 0
KHA2 121153Z 22001KT M02/M10 A3036 RMK A01 T10231100  RH  055%=      5-min Rain = 0
KHA2 121154Z 22001KT M02/M10 A3036 RMK A01 T10221101  RH  055%=      5-min Rain = 0
KHA2 121155Z 21001KT M02/M10 A3036 RMK A01 T10221099  RH  055%=      5-min Rain = 0
KHA2 121156Z 21001KT M02/M10 A3036 RMK A01 T10211101  RH  055%=      5-min Rain = 0
KHA2 121157Z 21001KT M02/M10 A3036 RMK A01 T10211101  RH  054%=      5-min Rain = 0
KHA2 121158Z 21001KT M02/M10 A3036 RMK A01 T10221101  RH  054%=      5-min Rain = 0
KHA2 121159Z 21001KT M02/M10 A3036 RMK A01 T10221101  RH  055%=      5-min Rain = 0
KHA2 121200Z 21001KT M02/M10 A3036 RMK A01 T10211100  RH  055%=      5-min Rain = 0
KHA2 121201Z 21001KT M02/M10 A3036 RMK A01 T10211099  RH  055%=      5-min Rain = 0
KHA2 121202Z 22001KT M02/M10 A3036 RMK A01 T10211098  RH  055%=      5-min Rain = 0
KHA2 121203Z 22002KT M02/M10 A3036 RMK A01 T10211097  RH  056%=      5-min Rain = 0
KHA2 121204Z 22002KT M02/M10 A3036 RMK A01 T10211099  RH  055%=      5-min Rain = 0
KHA2 121205Z 22002KT M02/M10 A3036 RMK A01 T10211099  RH  055%=      5-min Rain = 0
KHA2 121206Z 23002KT M02/M10 A3036 RMK A01 T10211096  RH  057%=      5-min Rain = 0
KHA2 121207Z 23002KT M02/M09 A3036 RMK A01 T10191093  RH  057%=      5-min Rain = 0
KHA2 121208Z 22002KT M02/M09 A3036 RMK A01 T10191094  RH  056%=      5-min Rain = 0
KHA2 121209Z 22002KT M02/M09 A3036 RMK A01 T10181094  RH  056%=      5-min Rain = 0
KHA2 121210Z 22002KT M02/M09 A3036 RMK A01 T10181093  RH  056%=      5-min Rain = 0
KHA2 121211Z 22002KT M02/M10 A3036 RMK A01 T10181096  RH  055%=      5-min Rain = 0
KHA2 121212Z 22002KT M02/M10 A3036 RMK A01 T10191099  RH  054%=      5-min Rain = 0
KHA2 121213Z 22002KT M02/M10 A3036 RMK A01 T10201101  RH  054%=      5-min Rain = 0
KHA2 121214Z 23002KT M02/M10 A3036 RMK A01 T10211101  RH  054%=      5-min Rain = 0
KHA2 121215Z 23002KT M02/M10 A3036 RMK A01 T10221100  RH  055%=      5-min Rain = 0
KHA2 121216Z 24001KT M02/M10 A3036 RMK A01 T10221098  RH  056%=      5-min Rain = 0
KHA2 121217Z 25002KT M02/M10 A3036 RMK A01 T10221097  RH  057%=      5-min Rain = 0
KHA2 121218Z 26002KT M02/M10 A3036 RMK A01 T10221097  RH  056%=      5-min Rain = 0
KHA2 121219Z 26002KT M02/M10 A3036 RMK A01 T10211096  RH  056%=      5-min Rain = 0
KHA2 121220Z 26002KT M02/M10 A3036 RMK A01 T10211098  RH  055%=      5-min Rain = 0
KHA2 121221Z 25002KT M02/M10 A3036 RMK A01 T10211101  RH  054%=      5-min Rain = 0
KHA2 121222Z 25002KT M02/M10 A3036 RMK A01 T10211099  RH  055%=      5-min Rain = 0
KHA2 121223Z 25002KT M02/M10 A3036 RMK A01 T10191095  RH  056%=      5-min Rain = 0
KHA2 121224Z 25003KT M02/M10 A3036 RMK A01 T10191095  RH  056%=      5-min Rain = 0
KHA2 121225Z 25003KT M02/M10 A3036 RMK A01 T10201096  RH  056%=      5-min Rain = 0
KHA2 121226Z 26003KT M02/M09 A3036 RMK A01 T10191094  RH  057%=      5-min Rain = 0
KHA2 121227Z 27003KT M02/M09 A3036 RMK A01 T10191092  RH  057%=      5-min Rain = 0
KHA2 121228Z 28003KT M02/M09 A3036 RMK A01 T10191094  RH  056%=      5-min Rain = 0
KHA2 121229Z 28003KT M02/M10 A3036 RMK A01 T10201097  RH  056%=      5-min Rain = 0
KHA2 121230Z 29003KT M02/M10 A3036 RMK A01 T10211100  RH  055%=      5-min Rain = 0
KHA2 121231Z 29003KT M02/M10 A3036 RMK A01 T10241104  RH  054%=      5-min Rain = 0
KHA2 121232Z 29002KT M03/M11 A3036 RMK A01 T10261105  RH  054%=      5-min Rain = 0
KHA2 121233Z 29002KT M03/M11 A3036 RMK A01 T10281109  RH  054%=      5-min Rain = 0
KHA2 121234Z 29002KT M03/M11 A3036 RMK A01 T10321113  RH  053%=      5-min Rain = 0
KHA2 121235Z 29002KT M03/M11 A3036 RMK A01 T10341114  RH  054%=      5-min Rain = 0
KHA2 121236Z 29003KT M04/M11 A3036 RMK A01 T10361113  RH  055%=      5-min Rain = 0
KHA2 121237Z 30002KT M04/M11 A3036 RMK A01 T10361112  RH  056%=      5-min Rain = 0
KHA2 121238Z 30002KT M04/M11 A3036 RMK A01 T10371108  RH  057%=      5-min Rain = 0
KHA2 121239Z 30002KT M04/M11 A3036 RMK A01 T10361111  RH  056%=      5-min Rain = 0
KHA2 121240Z 30002KT M04/M12 A3036 RMK A01 T10381115  RH  055%=      5-min Rain = 0
KHA2 121241Z 30002KT M04/M12 A3036 RMK A01 T10391116  RH  055%=      5-min Rain = 0
KHA2 121242Z 29002KT M04/M12 A3036 RMK A01 T10401117  RH  055%=      5-min Rain = 0
KHA2 121243Z 29002KT M04/M12 A3036 RMK A01 T10421118  RH  055%=      5-min Rain = 0
KHA2 121244Z 28002KT M04/M12 A3036 RMK A01 T10431121  RH  055%=      5-min Rain = 0
KHA2 121245Z 28002KT M04/M12 A3036 RMK A01 T10441120  RH  055%=      5-min Rain = 0
KHA2 121246Z 27002KT M04/M12 A3036 RMK A01 T10441117  RH  057%=      5-min Rain = 0
KHA2 121247Z 27001KT M04/M12 A3037 RMK A01 T10441117  RH  057%=      5-min Rain = 0
KHA2 121248Z 27001KT M04/M12 A3037 RMK A01 T10441116  RH  057%=      5-min Rain = 0
KHA2 121249Z 28001KT M04/M12 A3037 RMK A01 T10431115  RH  057%=      5-min Rain = 0
KHA2 121250Z 28001KT M04/M11 A3037 RMK A01 T10431112  RH  058%=      5-min Rain = 0
KHA2 121251Z 28002KT M04/M11 A3037 RMK A01 T10421113  RH  058%=      5-min Rain = 0
KHA2 121252Z 28002KT M04/M11 A3037 RMK A01 T10421113  RH  057%=      5-min Rain = 0
KHA2 121253Z 28002KT M04/M11 A3037 RMK A01 T10411111  RH  058%=      5-min Rain = 0
KHA2 121254Z 28002KT M04/M11 A3037 RMK A01 T10401111  RH  058%=      5-min Rain = 0
KHA2 121255Z 28002KT M04/M11 A3037 RMK A01 T10401112  RH  057%=      5-min Rain = 0
KHA2 121256Z 27002KT M04/M11 A3037 RMK A01 T10401109  RH  059%=      5-min Rain = 0
KHA2 121257Z 27002KT M04/M11 A3037 RMK A01 T10391108  RH  059%=      5-min Rain = 0
KHA2 121258Z 27002KT M04/M11 A3037 RMK A01 T10391110  RH  058%=      5-min Rain = 0
KHA2 121259Z 27002KT M04/M11 A3037 RMK A01 T10401111  RH  058%=      5-min Rain = 0
KHA2 121300Z 27003KT M04/M10 A3037 RMK A01 T10391104  RH  060%=      5-min Rain = 0
KHA2 121301Z 27003KT M04/M10 A3037 RMK A01 T10361101  RH  061%=      5-min Rain = 0
KHA2 121302Z 27003KT M04/M10 A3037 RMK A01 T10351101  RH  060%=      5-min Rain = 0
KHA2 121303Z 27003KT M04/M11 A3037 RMK A01 T10351107  RH  058%=      5-min Rain = 0
KHA2 121304Z 27004KT M04/M11 A3037 RMK A01 T10371109  RH  057%=      5-min Rain = 0
KHA2 121305Z 27004KT M04/M11 A3037 RMK A01 T10371106  RH  059%=      5-min Rain = 0
KHA2 121306Z 27004KT M04/M11 A3037 RMK A01 T10361106  RH  059%=      5-min Rain = 0
KHA2 121307Z 27004KT M04/M11 A3037 RMK A01 T10371109  RH  057%=      5-min Rain = 0
KHA2 121308Z 27005KT M04/M11 A3037 RMK A01 T10391111  RH  057%=      5-min Rain = 0
KHA2 121309Z 28005KT M04/M11 A3037 RMK A01 T10391106  RH  060%=      5-min Rain = 0
KHA2 121310Z 28004KT M04/M10 A3037 RMK A01 T10361101  RH  061%=      5-min Rain = 0
KHA2 121311Z 28004KT M04/M10 A3037 RMK A01 T10351102  RH  060%=      5-min Rain = 0
KHA2 121312Z 28004KT M04/M10 A3037 RMK A01 T10351103  RH  060%=      5-min Rain = 0
KHA2 121313Z 28004KT M04/M10 A3037 RMK A01 T10361102  RH  060%=      5-min Rain = 0
KHA2 121314Z 28004KT M04/M10 A3037 RMK A01 T10351099  RH  061%=      5-min Rain = 0
KHA2 121315Z 28005KT M03/M10 A3037 RMK A01 T10331098  RH  061%=      5-min Rain = 0
KHA2 121316Z 28005KT M03/M10 A3037 RMK A01 T10331100  RH  060%=      5-min Rain = 0
KHA2 121317Z 27005KT M03/M10 A3037 RMK A01 T10321099  RH  060%=      5-min Rain = 0
KHA2 121318Z 27005KT M03/M10 A3037 RMK A01 T10321099  RH  060%=      5-min Rain = 0
KHA2 121319Z 27005KT M03/M10 A3037 RMK A01 T10311099  RH  060%=      5-min Rain = 0
KHA2 121320Z 27005KT M03/M10 A3037 RMK A01 T10311099  RH  059%=      5-min Rain = 0
KHA2 121321Z 27004KT M03/M10 A3037 RMK A01 T10301098  RH  059%=      5-min Rain = 0
KHA2 121322Z 27004KT M03/M10 A3037 RMK A01 T10291096  RH  060%=      5-min Rain = 0
KHA2 121323Z 27004KT M03/M09 A3037 RMK A01 T10271092  RH  061%=      5-min Rain = 0
KHA2 121324Z 27004KT M03/M09 A3037 RMK A01 T10251090  RH  061%=      5-min Rain = 0
KHA2 121325Z 27004KT M02/M09 A3037 RMK A01 T10231088  RH  061%=      5-min Rain = 0
KHA2 121326Z 27004KT M02/M09 A3037 RMK A01 T10221089  RH  060%=      5-min Rain = 0
KHA2 121327Z 27005KT M02/M09 A3037 RMK A01 T10221089  RH  060%=      5-min Rain = 0
KHA2 121328Z 27005KT M02/M09 A3037 RMK A01 T10211089  RH  059%=      5-min Rain = 0
KHA2 121329Z 27004KT M02/M09 A3037 RMK A01 T10211091  RH  059%=      5-min Rain = 0
KHA2 121330Z 27004KT M02/M09 A3037 RMK A01 T10211092  RH  058%=      5-min Rain = 0
KHA2 121331Z 27004KT M02/M09 A3037 RMK A01 T10211092  RH  058%=      5-min Rain = 0
KHA2 121332Z 28004KT M02/M09 A3037 RMK A01 T10201091  RH  059%=      5-min Rain = 0
KHA2 121333Z 28004KT M02/M09 A3037 RMK A01 T10191089  RH  059%=      5-min Rain = 0
KHA2 121334Z 27004KT M02/M09 A3037 RMK A01 T10181088  RH  059%=      5-min Rain = 0
KHA2 121335Z 27004KT M02/M09 A3037 RMK A01 T10171088  RH  059%=      5-min Rain = 0
KHA2 121336Z 27003KT M02/M09 A3037 RMK A01 T10151085  RH  059%=      5-min Rain = 0
KHA2 121337Z 28003KT M01/M09 A3037 RMK A01 T10141085  RH  059%=      5-min Rain = 0
KHA2 121338Z 28003KT M01/M09 A3037 RMK A01 T10131086  RH  058%=      5-min Rain = 0
KHA2 121339Z 28003KT M01/M09 A3037 RMK A01 T10121087  RH  057%=      5-min Rain = 0
KHA2 121340Z 28003KT M01/M09 A3037 RMK A01 T10101085  RH  057%=      5-min Rain = 0
KHA2 121341Z 28003KT M01/M09 A3037 RMK A01 T10081085  RH  056%=      5-min Rain = 0
KHA2 121342Z 28002KT M01/M09 A3037 RMK A01 T10071086  RH  055%=      5-min Rain = 0
KHA2 121343Z 27002KT M01/M08 A3037 RMK A01 T10061084  RH  056%=      5-min Rain = 0
KHA2 121344Z 27002KT M01/M08 A3037 RMK A01 T10051083  RH  056%=      5-min Rain = 0
KHA2 121345Z 27002KT M01/M08 A3037 RMK A01 T10051083  RH  056%=      5-min Rain = 0
KHA2 121346Z 27002KT M00/M08 A3038 RMK A01 T10041082  RH  056%=      5-min Rain = 0
KHA2 121347Z 27002KT M00/M08 A3038 RMK A01 T10031081  RH  055%=      5-min Rain = 0
KHA2 121348Z 27002KT M00/M08 A3038 RMK A01 T10021082  RH  055%=      5-min Rain = 0
KHA2 121349Z 27002KT 00/08 A3038 RMK A01 T00-00-82  RH  054%=      5-min Rain = 0
KHA2 121350Z 27001KT 00/M08 A3038 RMK A01 T00011082  RH  053%=      5-min Rain = 0
KHA2 121351Z 27001KT 00/M08 A3038 RMK A01 T00031080  RH  054%=      5-min Rain = 0
KHA2 121352Z 27001KT 01/M08 A3038 RMK A01 T00051077  RH  054%=      5-min Rain = 0
KHA2 121353Z 27001KT 01/M08 A3038 RMK A01 T00061076  RH  054%=      5-min Rain = 0
KHA2 121354Z 26002KT 01/M07 A3038 RMK A01 T00081074  RH  054%=      5-min Rain = 0
KHA2 121355Z 26002KT 01/M07 A3038 RMK A01 T00091073  RH  054%=      5-min Rain = 0
KHA2 121356Z 25001KT 01/M07 A3038 RMK A01 T00101073  RH  054%=      5-min Rain = 0
KHA2 121357Z 25001KT 01/M07 A3038 RMK A01 T00111072  RH  054%=      5-min Rain = 0
KHA2 121358Z 25001KT 01/M07 A3038 RMK A01 T00121071  RH  054%=      5-min Rain = 0
KHA2 121359Z 25001KT 01/M07 A3038 RMK A01 T00131071  RH  054%=      5-min Rain = 0
KHA2 121400Z 24002KT 01/M07 A3038 RMK A01 T00141070  RH  053%=      5-min Rain = 0
KHA2 121401Z 23001KT 02/M07 A3038 RMK A01 T00151070  RH  053%=      5-min Rain = 0
KHA2 121402Z 22001KT 02/M07 A3038 RMK A01 T00171067  RH  054%=      5-min Rain = 0
KHA2 121403Z 23001KT 02/M07 A3038 RMK A01 T00181067  RH  053%=      5-min Rain = 0
KHA2 121404Z 23000KT 02/M07 A3038 RMK A01 T00191066  RH  053%=      5-min Rain = 0
KHA2 121405Z 23000KT 02/M07 A3038 RMK A01 T00201066  RH  053%=      5-min Rain = 0
KHA2 121406Z 23000KT 02/M07 A3037 RMK A01 T00211065  RH  053%=      5-min Rain = 0
KHA2 121407Z 25000KT 02/M07 A3037 RMK A01 T00221065  RH  053%=      5-min Rain = 0
KHA2 121408Z 00000KT 02/M07 A3037 RMK A01 T00231065  RH  052%=      5-min Rain = 0
KHA2 121409Z 23001KT 02/M06 A3037 RMK A01 T00241064  RH  052%=      5-min Rain = 0
KHA2 121410Z 22001KT 03/M06 A3037 RMK A01 T00251063  RH  052%=      5-min Rain = 0
KHA2 121411Z 23001KT 03/M06 A3037 RMK A01 T00261063  RH  052%=      5-min Rain = 0
KHA2 121412Z 21001KT 03/M06 A3038 RMK A01 T00261063  RH  052%=      5-min Rain = 0
KHA2 121413Z 21001KT 03/M06 A3038 RMK A01 T00271063  RH  051%=      5-min Rain = 0
KHA2 121414Z 23002KT 03/M06 A3038 RMK A01 T00281063  RH  051%=      5-min Rain = 0
KHA2 121415Z 23002KT 03/M06 A3038 RMK A01 T00291063  RH  051%=      5-min Rain = 0
KHA2 121416Z 23002KT 03/M06 A3038 RMK A01 T00291062  RH  051%=      5-min Rain = 0
KHA2 121417Z 23003KT 03/M06 A3038 RMK A01 T00301062  RH  051%=      5-min Rain = 0
KHA2 121418Z 22003KT 03/M06 A3038 RMK A01 T00311062  RH  051%=      5-min Rain = 0
KHA2 121419Z 22003KT 03/M06 A3038 RMK A01 T00311062  RH  051%=      5-min Rain = 0
KHA2 121420Z 22003KT 03/M06 A3038 RMK A01 T00311061  RH  051%=      5-min Rain = 0
KHA2 121421Z 22003KT 03/M06 A3038 RMK A01 T00311062  RH  051%=      5-min Rain = 0
KHA2 121422Z 21003KT 03/M06 A3038 RMK A01 T00311062  RH  050%=      5-min Rain = 0
KHA2 121423Z 22003KT 03/M06 A3038 RMK A01 T00311063  RH  050%=      5-min Rain = 0
KHA2 121424Z 22003KT 03/M06 A3038 RMK A01 T00311062  RH  050%=      5-min Rain = 0
KHA2 121425Z 22002KT 03/M06 A3038 RMK A01 T00321062  RH  050%=      5-min Rain = 0
KHA2 121426Z 22002KT 03/M06 A3038 RMK A01 T00321063  RH  050%=      5-min Rain = 0
KHA2 121427Z 22003KT 03/M06 A3038 RMK A01 T00341062  RH  050%=      5-min Rain = 0
KHA2 121428Z 22003KT 04/M06 A3038 RMK A01 T00361061  RH  049%=      5-min Rain = 0
KHA2 121429Z 22004KT 04/M06 A3038 RMK A01 T00371061  RH  049%=      5-min Rain = 0
KHA2 121430Z 20004KT 04/M06 A3038 RMK A01 T00371061  RH  049%=      5-min Rain = 0
KHA2 121431Z 19004KT 04/M06 A3038 RMK A01 T00391059  RH  049%=      5-min Rain = 0
KHA2 121432Z 21004KT 04/M06 A3038 RMK A01 T00411057  RH  049%=      5-min Rain = 0
KHA2 121433Z 20003KT 04/M06 A3038 RMK A01 T00411057  RH  049%=      5-min Rain = 0
KHA2 121434Z 20005KT 04/M06 A3038 RMK A01 T00421056  RH  049%=      5-min Rain = 0
KHA2 121435Z 20005KT 04/M06 A3038 RMK A01 T00431056  RH  049%=      5-min Rain = 0
KHA2 121436Z 20005KT 04/M06 A3038 RMK A01 T00421057  RH  049%=      5-min Rain = 0
KHA2 121437Z 19005KT 04/M06 A3038 RMK A01 T00431056  RH  049%=      5-min Rain = 0
KHA2 121438Z 22006KT 05/M06 A3038 RMK A01 T00451055  RH  048%=      5-min Rain = 0
KHA2 121439Z 21005KT 04/M06 A3038 RMK A01 T00441055  RH  048%=      5-min Rain = 0
KHA2 121440Z 20005KT 04/M06 A3038 RMK A01 T00441055  RH  048%=      5-min Rain = 0
KHA2 121441Z 20005KT 04/M05 A3038 RMK A01 T00441054  RH  049%=      5-min Rain = 0
KHA2 121442Z 20005KT 04/M05 A3038 RMK A01 T00441054  RH  049%=      5-min Rain = 0
KHA2 121443Z 21007KT 05/M05 A3038 RMK A01 T00451053  RH  049%=      5-min Rain = 0
KHA2 121444Z 21007KT 05/M05 A3038 RMK A01 T00451053  RH  049%=      5-min Rain = 0
KHA2 121445Z 20007KT 05/M05 A3039 RMK A01 T00461053  RH  048%=      5-min Rain = 0
KHA2 121446Z 20007KT 05/M05 A3039 RMK A01 T00461054  RH  048%=      5-min Rain = 0
KHA2 121447Z 20006KT 05/M05 A3039 RMK A01 T00461054  RH  048%=      5-min Rain = 0
KHA2 121448Z 20006KT 05/M05 A3039 RMK A01 T00461054  RH  048%=      5-min Rain = 0
KHA2 121449Z 20006KT 05/M05 A3039 RMK A01 T00461054  RH  048%=      5-min Rain = 0
KHA2 121450Z 20007KT 05/M05 A3039 RMK A01 T00471054  RH  048%=      5-min Rain = 0
KHA2 121451Z 21006KT 05/M05 A3039 RMK A01 T00471053  RH  048%=      5-min Rain = 0
KHA2 121452Z 21007KT 05/M05 A3039 RMK A01 T00481053  RH  048%=      5-min Rain = 0
KHA2 121453Z 21007KT 05/M05 A3039 RMK A01 T00471054  RH  048%=      5-min Rain = 0
KHA2 121454Z 22006KT 05/M05 A3039 RMK A01 T00471054  RH  048%=      5-min Rain = 0
KHA2 121455Z 20006KT 05/M05 A3039 RMK A01 T00471054  RH  048%=      5-min Rain = 0
KHA2 121456Z 19007KT 05/M05 A3039 RMK A01 T00501051  RH  048%=      5-min Rain = 0
KHA2 121457Z 19008KT 05/M05 A3039 RMK A01 T00511051  RH  048%=      5-min Rain = 0
KHA2 121458Z 20005KT 05/M05 A3039 RMK A01 T00501053  RH  047%=      5-min Rain = 0
KHA2 121459Z 19006KT 05/M05 A3039 RMK A01 T00501052  RH  047%=      5-min Rain = 0
KHA2 121500Z 21007KT 05/M05 A3039 RMK A01 T00521051  RH  047%=      5-min Rain = 0
KHA2 121501Z 21006KT 05/M05 A3039 RMK A01 T00531052  RH  047%=      5-min Rain = 0
KHA2 121502Z 22006KT 05/M05 A3039 RMK A01 T00531052  RH  047%=      5-min Rain = 0
KHA2 121503Z 23006KT 05/M05 A3039 RMK A01 T00521053  RH  047%=      5-min Rain = 0
KHA2 121504Z 22006KT 05/M05 A3039 RMK A01 T00521051  RH  047%=      5-min Rain = 0
KHA2 121505Z 21007KT 05/M05 A3039 RMK A01 T00531051  RH  047%=      5-min Rain = 0
KHA2 121506Z 21007KT 05/M05 A3039 RMK A01 T00531051  RH  047%=      5-min Rain = 0
KHA2 121507Z 21006KT 05/M05 A3039 RMK A01 T00531051  RH  047%=      5-min Rain = 0
KHA2 121508Z 21006KT 05/M05 A3039 RMK A01 T00541051  RH  047%=      5-min Rain = 0
KHA2 121509Z 20006KT 05/M05 A3039 RMK A01 T00541051  RH  047%=      5-min Rain = 0
KHA2 121510Z 21007KT 06/M05 A3039 RMK A01 T00551051  RH  046%=      5-min Rain = 0
KHA2 121511Z 21007KT 06/M05 A3039 RMK A01 T00561052  RH  046%=      5-min Rain = 0
KHA2 121512Z 22007KT 06/M05 A3039 RMK A01 T00561052  RH  046%=      5-min Rain = 0
KHA2 121513Z 20008KT 06/M05 A3039 RMK A01 T00551053  RH  046%=      5-min Rain = 0
KHA2 121514Z 21007KT 06/M05 A3039 RMK A01 T00551053  RH  046%=      5-min Rain = 0
KHA2 121515Z 18008KT 06/M05 A3039 RMK A01 T00551053  RH  046%=      5-min Rain = 0
KHA2 121516Z 19008KT 06/M05 A3039 RMK A01 T00571052  RH  046%=      5-min Rain = 0
KHA2 121517Z 20008KT 06/M05 A3039 RMK A01 T00591050  RH  045%=      5-min Rain = 0
KHA2 121518Z 19008KT 06/M05 A3039 RMK A01 T00611049  RH  045%=      5-min Rain = 0
KHA2 121519Z 19008KT 06/M05 A3039 RMK A01 T00601051  RH  045%=      5-min Rain = 0
KHA2 121520Z 18009KT 06/M05 A3039 RMK A01 T00591050  RH  045%=      5-min Rain = 0
KHA2 121521Z 20008KT 06/M05 A3039 RMK A01 T00601050  RH  045%=      5-min Rain = 0
KHA2 121522Z 20008KT 06/M05 A304 RMK A01 T00591051  RH  045%=      5-min Rain = 0
KHA2 121523Z 19006KT 06/M05 A304 RMK A01 T00591052  RH  045%=      5-min Rain = 0
KHA2 121524Z 19008KT 06/M05 A3039 RMK A01 T00591051  RH  045%=      5-min Rain = 0
KHA2 121525Z 21008KT 06/M05 A3039 RMK A01 T00601052  RH  045%=      5-min Rain = 0
KHA2 121526Z 21007KT 06/M05 A3039 RMK A01 T00601052  RH  045%=      5-min Rain = 0
KHA2 121527Z 21007KT 06/M05 A3039 RMK A01 T00601052  RH  044%=      5-min Rain = 0
KHA2 121528Z 21006KT 06/M05 A3039 RMK A01 T00601052  RH  044%=      5-min Rain = 0
KHA2 121529Z 20006KT 06/M05 A3039 RMK A01 T00611052  RH  044%=      5-min Rain = 0
KHA2 121530Z 19006KT 06/M05 A3039 RMK A01 T00621052  RH  044%=      5-min Rain = 0
KHA2 121531Z 19006KT 06/M05 A304 RMK A01 T00621053  RH  043%=      5-min Rain = 0
KHA2 121532Z 19005KT 06/M05 A3039 RMK A01 T00641052  RH  043%=      5-min Rain = 0
KHA2 121533Z 22007KT 07/M05 A304 RMK A01 T00661051  RH  043%=      5-min Rain = 0
KHA2 121534Z 21007KT 07/M05 A304 RMK A01 T00681050  RH  043%=      5-min Rain = 0
KHA2 121535Z 21007KT 07/M05 A304 RMK A01 T00681051  RH  042%=      5-min Rain = 0
KHA2 121536Z 21008KT 07/M05 A3039 RMK A01 T00671052  RH  042%=      5-min Rain = 0
KHA2 121537Z 21006KT 07/M05 A3039 RMK A01 T00651053  RH  042%=      5-min Rain = 0
KHA2 121538Z 21006KT 06/M05 A3039 RMK A01 T00631054  RH  043%=      5-min Rain = 0
KHA2 121539Z 21005KT 06/M05 A3039 RMK A01 T00641052  RH  043%=      5-min Rain = 0
KHA2 121540Z 22007KT 07/M05 A3039 RMK A01 T00671051  RH  043%=      5-min Rain = 0
KHA2 121541Z 22007KT 07/M05 A3039 RMK A01 T00661052  RH  042%=      5-min Rain = 0
KHA2 121542Z 21004KT 07/M05 A3039 RMK A01 T00681052  RH  042%=      5-min Rain = 0
KHA2 121543Z 20006KT 07/M05 A3039 RMK A01 T00691051  RH  042%=      5-min Rain = 0
KHA2 121544Z 21006KT 07/M05 A3039 RMK A01 T00701052  RH  042%=      5-min Rain = 0
KHA2 121545Z 22007KT 07/M05 A3039 RMK A01 T00701052  RH  042%=      5-min Rain = 0
KHA2 121546Z 21004KT 07/M05 A3039 RMK A01 T00691053  RH  042%=      5-min Rain = 0
KHA2 121547Z 20005KT 07/M05 A3039 RMK A01 T00691052  RH  042%=      5-min Rain = 0
KHA2 121548Z 19006KT 07/M05 A3039 RMK A01 T00721049  RH  042%=      5-min Rain = 0
KHA2 121549Z 19004KT 07/M05 A3039 RMK A01 T00741051  RH  041%=      5-min Rain = 0
KHA2 121550Z 19006KT 08/M05 A3039 RMK A01 T00751050  RH  041%=      5-min Rain = 0
KHA2 121551Z 19007KT 08/M05 A3039 RMK A01 T00791048  RH  040%=      5-min Rain = 0
KHA2 121552Z 20005KT 08/M05 A3039 RMK A01 T00791050  RH  040%=      5-min Rain = 0
KHA2 121553Z 19006KT 08/M05 A3039 RMK A01 T00791050  RH  040%=      5-min Rain = 0
KHA2 121554Z 18006KT 08/M05 A3039 RMK A01 T00791050  RH  040%=      5-min Rain = 0
KHA2 121555Z 19006KT 08/M05 A3039 RMK A01 T00801050  RH  039%=      5-min Rain = 0
KHA2 121556Z 19004KT 08/M05 A3039 RMK A01 T00801050  RH  039%=      5-min Rain = 0
KHA2 121557Z 19003KT 08/M05 A3039 RMK A01 T00801050  RH  039%=      5-min Rain = 0
KHA2 121558Z 18005KT 08/M05 A3039 RMK A01 T00811049  RH  039%=      5-min Rain = 0
KHA2 121559Z 21004KT 08/M05 A3039 RMK A01 T00841047  RH  039%=      5-min Rain = 0
KHA2 121600Z 24006KT 09/M05 A3039 RMK A01 T00861049  RH  038%=      5-min Rain = 0
KHA2 121601Z 24004KT 08/M05 A3039 RMK A01 T00831052  RH  038%=      5-min Rain = 0
KHA2 121602Z 18004KT 08/M05 A3039 RMK A01 T00841050  RH  038%=      5-min Rain = 0
KHA2 121603Z 20006KT 09/M05 A3039 RMK A01 T00871048  RH  038%=      5-min Rain = 0
KHA2 121604Z 22006KT 09/M05 A3039 RMK A01 T00881049  RH  038%=      5-min Rain = 0
KHA2 121605Z 20005KT 09/M05 A3039 RMK A01 T00861051  RH  038%=      5-min Rain = 0
KHA2 121606Z 20006KT 09/M05 A3039 RMK A01 T00851050  RH  038%=      5-min Rain = 0
KHA2 121607Z 19006KT 08/M05 A3039 RMK A01 T00841051  RH  038%=      5-min Rain = 0
KHA2 121608Z 19007KT 09/M05 A3039 RMK A01 T00851051  RH  038%=      5-min Rain = 0
KHA2 121609Z 18005KT 08/M05 A3039 RMK A01 T00841053  RH  037%=      5-min Rain = 0
KHA2 121610Z 23006KT 08/M05 A3039 RMK A01 T00831053  RH  038%=      5-min Rain = 0
KHA2 121611Z 21007KT 09/M05 A3039 RMK A01 T00851052  RH  038%=      5-min Rain = 0
KHA2 121612Z 20005KT 09/M05 A3039 RMK A01 T00851052  RH  038%=      5-min Rain = 0
KHA2 121613Z 22004KT 09/M05 A3039 RMK A01 T00851052  RH  037%=      5-min Rain = 0
KHA2 121614Z 26002KT 09/M05 A3039 RMK A01 T00861054  RH  037%=      5-min Rain = 0
KHA2 121615Z 24003KT 09/M05 A3039 RMK A01 T00861052  RH  037%=      5-min Rain = 0
KHA2 121616Z 22005KT 09/M05 A3039 RMK A01 T00881051  RH  037%=      5-min Rain = 0
KHA2 121617Z 23006KT 09/M05 A3039 RMK A01 T00891052  RH  036%=      5-min Rain = 0
KHA2 121618Z 23005KT 09/M06 A3039 RMK A01 T00881055  RH  036%=      5-min Rain = 0
KHA2 121619Z 24006KT 09/M05 A3039 RMK A01 T00881054  RH  036%=      5-min Rain = 0
KHA2 121620Z 24006KT 09/M06 A3039 RMK A01 T00871058  RH  036%=      5-min Rain = 0
KHA2 121621Z 25005KT 09/M06 A3039 RMK A01 T00861058  RH  036%=      5-min Rain = 0
KHA2 121622Z 25003KT 09/M06 A3039 RMK A01 T00851057  RH  036%=      5-min Rain = 0
KHA2 121623Z 20006KT 09/M06 A3039 RMK A01 T00871055  RH  036%=      5-min Rain = 0
KHA2 121624Z 18006KT 09/M05 A3038 RMK A01 T00881054  RH  036%=      5-min Rain = 0
KHA2 121625Z 20004KT 09/M05 A3039 RMK A01 T00891054  RH  036%=      5-min Rain = 0
KHA2 121626Z 16001KT 09/M05 A3038 RMK A01 T00891054  RH  036%=      5-min Rain = 0
KHA2 121627Z 18004KT 09/M05 A3038 RMK A01 T00891053  RH  036%=      5-min Rain = 0
KHA2 121628Z 18003KT 09/M05 A3038 RMK A01 T00911053  RH  036%=      5-min Rain = 0
KHA2 121629Z 24003KT 09/M05 A3038 RMK A01 T00921053  RH  035%=      5-min Rain = 0
KHA2 121630Z 21004KT 09/M05 A3038 RMK A01 T00911054  RH  035%=      5-min Rain = 0
KHA2 121631Z 22003KT 09/M06 A3038 RMK A01 T00931055  RH  035%=      5-min Rain = 0
KHA2 121632Z 26003KT 09/M06 A3038 RMK A01 T00931055  RH  035%=      5-min Rain = 0
KHA2 121633Z 18003KT 09/M05 A3038 RMK A01 T00921053  RH  035%=      5-min Rain = 0
KHA2 121634Z 17006KT 09/M05 A3038 RMK A01 T00941051  RH  036%=      5-min Rain = 0
KHA2 121635Z 17007KT 10/M05 A3038 RMK A01 T00961052  RH  035%=      5-min Rain = 0
KHA2 121636Z 17006KT 09/M06 A3038 RMK A01 T00941055  RH  035%=      5-min Rain = 0
KHA2 121637Z 15005KT 09/M06 A3038 RMK A01 T00921055  RH  035%=      5-min Rain = 0
KHA2 121638Z 19005KT 09/M06 A3038 RMK A01 T00911055  RH  035%=      5-min Rain = 0
KHA2 121639Z 19004KT 09/M06 A3038 RMK A01 T00901056  RH  035%=      5-min Rain = 0
KHA2 121640Z 27002KT 09/M06 A3038 RMK A01 T00881057  RH  035%=      5-min Rain = 0
KHA2 121641Z 21003KT 09/M06 A3038 RMK A01 T00891056  RH  036%=      5-min Rain = 0
KHA2 121642Z 19006KT 09/M05 A3038 RMK A01 T00921052  RH  036%=      5-min Rain = 0
KHA2 121643Z 19005KT 09/M05 A3038 RMK A01 T00941054  RH  035%=      5-min Rain = 0
KHA2 121644Z 21006KT 10/M05 A3038 RMK A01 T00951053  RH  035%=      5-min Rain = 0
KHA2 121645Z 23007KT 10/M05 A3038 RMK A01 T00971053  RH  034%=      5-min Rain = 0
KHA2 121646Z 25005KT 10/M06 A3038 RMK A01 T00961055  RH  034%=      5-min Rain = 0
KHA2 121647Z 24004KT 10/M06 A3038 RMK A01 T00951055  RH  034%=      5-min Rain = 0
KHA2 121648Z 26005KT 09/M06 A3038 RMK A01 T00931057  RH  034%=      5-min Rain = 0
KHA2 121649Z 25005KT 09/M06 A3038 RMK A01 T00931056  RH  034%=      5-min Rain = 0
KHA2 121650Z 23005KT 09/M06 A3038 RMK A01 T00921056  RH  035%=      5-min Rain = 0
KHA2 121651Z 18006KT 09/M05 A3038 RMK A01 T00931054  RH  035%=      5-min Rain = 0
KHA2 121652Z 18004KT 10/M06 A3038 RMK A01 T00961055  RH  034%=      5-min Rain = 0
KHA2 121653Z 19005KT 10/M06 A3037 RMK A01 T00981056  RH  033%=      5-min Rain = 0
KHA2 121654Z 20008KT 10/M06 A3037 RMK A01 T00971057  RH  033%=      5-min Rain = 0
KHA2 121655Z 19007KT 10/M06 A3037 RMK A01 T00951056  RH  034%=      5-min Rain = 0
KHA2 121656Z 20005KT 09/M06 A3037 RMK A01 T00941057  RH  034%=      5-min Rain = 0
KHA2 121657Z 22005KT 09/M06 A3037 RMK A01 T00931056  RH  034%=      5-min Rain = 0
KHA2 121658Z 20005KT 09/M06 A3037 RMK A01 T00931055  RH  035%=      5-min Rain = 0
KHA2 121659Z 23006KT 10/M06 A3037 RMK A01 T00951055  RH  034%=      5-min Rain = 0
KHA2 121700Z 24007KT 09/M06 A3037 RMK A01 T00941058  RH  034%=      5-min Rain = 0
KHA2 121701Z 24006KT 09/M06 A3037 RMK A01 T00931060  RH  033%=      5-min Rain = 0
KHA2 121702Z 26004KT 09/M06 A3037 RMK A01 T00921060  RH  034%=      5-min Rain = 0
KHA2 121703Z 22007KT 09/M06 A3037 RMK A01 T00911059  RH  034%=      5-min Rain = 0
KHA2 121704Z 19007KT 10/M05 A3037 RMK A01 T00961054  RH  034%=      5-min Rain = 0
KHA2 121705Z 17007KT 10/M06 A3037 RMK A01 T00991057  RH  033%=      5-min Rain = 0
KHA2 121706Z 18004KT 10/M06 A3037 RMK A01 T00981058  RH  033%=      5-min Rain = 0
KHA2 121707Z 18006KT 10/M06 A3037 RMK A01 T00991057  RH  033%=      5-min Rain = 0
KHA2 121708Z 17004KT 10/M06 A3037 RMK A01 T00961061  RH  033%=      5-min Rain = 0
KHA2 121709Z 16005KT 10/M06 A3037 RMK A01 T00951060  RH  033%=      5-min Rain = 0
KHA2 121710Z 17003KT 10/M06 A3037 RMK A01 T00951060  RH  033%=      5-min Rain = 0
KHA2 121711Z 24005KT 10/M06 A3037 RMK A01 T00961059  RH  033%=      5-min Rain = 0
KHA2 121712Z 27003KT 10/M06 A3037 RMK A01 T00961059  RH  033%=      5-min Rain = 0
KHA2 121713Z 27003KT 10/M06 A3037 RMK A01 T00951060  RH  033%=      5-min Rain = 0
KHA2 121714Z 17009KT 10/M06 A3037 RMK A01 T00971056  RH  033%=      5-min Rain = 0
KHA2 121715Z 16006KT 10/M06 A3037 RMK A01 T01011058  RH  032%=      5-min Rain = 0
KHA2 121716Z 20006KT 10/M06 A3037 RMK A01 T01001060  RH  032%=      5-min Rain = 0
KHA2 121717Z 21003KT 10/M06 A3037 RMK A01 T01001059  RH  032%=      5-min Rain = 0
KHA2 121718Z 18003KT 10/M06 A3037 RMK A01 T00981058  RH  033%=      5-min Rain = 0
KHA2 121719Z 17005KT 10/M06 A3037 RMK A01 T01001057  RH  032%=      5-min Rain = 0
KHA2 121720Z 19006KT 10/M06 A3037 RMK A01 T01031056  RH  032%=      5-min Rain = 0
KHA2 121721Z 20006KT 10/M06 A3037 RMK A01 T01041056  RH  032%=      5-min Rain = 0
KHA2 121722Z 22004KT 10/M06 A3037 RMK A01 T01021057  RH  032%=      5-min Rain = 0
KHA2 121723Z 20008KT 10/M06 A3037 RMK A01 T01001058  RH  032%=      5-min Rain = 0
KHA2 121724Z 20009KT 10/M05 A3037 RMK A01 T01041054  RH  033%=      5-min Rain = 0
KHA2 121725Z 19006KT 11/M06 A3037 RMK A01 T01071056  RH  031%=      5-min Rain = 0
KHA2 121726Z 21004KT 10/M06 A3037 RMK A01 T01031060  RH  031%=      5-min Rain = 0
KHA2 121727Z 17004KT 10/M06 A3037 RMK A01 T01001060  RH  032%=      5-min Rain = 0
KHA2 121728Z 19005KT 10/M06 A3036 RMK A01 T00991060  RH  032%=      5-min Rain = 0
KHA2 121729Z 16003KT 10/M06 A3036 RMK A01 T00981061  RH  032%=      5-min Rain = 0
KHA2 121730Z 13001KT 10/M06 A3036 RMK A01 T00991061  RH  032%=      5-min Rain = 0
KHA2 121731Z 13003KT 10/M06 A3036 RMK A01 T00991061  RH  032%=      5-min Rain = 0
KHA2 121732Z 20004KT 10/M06 A3036 RMK A01 T01021057  RH  032%=      5-min Rain = 0
KHA2 121733Z 19007KT 11/M06 A3036 RMK A01 T01061056  RH  031%=      5-min Rain = 0
KHA2 121734Z 17005KT 10/M06 A3036 RMK A01 T01031060  RH  031%=      5-min Rain = 0
KHA2 121735Z 16008KT 10/M06 A3036 RMK A01 T01021059  RH  032%=      5-min Rain = 0
KHA2 121736Z 18007KT 10/M06 A3036 RMK A01 T01041058  RH  031%=      5-min Rain = 0
KHA2 121737Z 17006KT 10/M06 A3036 RMK A01 T01041060  RH  031%=      5-min Rain = 0
KHA2 121738Z 16005G10KT 10/M06 A3036 RMK A01 T01041061  RH  031%=      5-min Rain = 0
KHA2 121739Z 16006KT 10/M06 A3036 RMK A01 T01021062  RH  031%=      5-min Rain = 0
KHA2 121740Z 15006KT 10/M06 A3036 RMK A01 T01011062  RH  031%=      5-min Rain = 0
KHA2 121741Z 17007KT 10/M06 A3036 RMK A01 T01011062  RH  031%=      5-min Rain = 0
KHA2 121742Z 18004KT 10/M06 A3036 RMK A01 T01021064  RH  031%=      5-min Rain = 0
KHA2 121743Z 18003KT 10/M06 A3036 RMK A01 T01011064  RH  031%=      5-min Rain = 0
KHA2 121744Z 18002KT 10/M07 A3036 RMK A01 T01001065  RH  031%=      5-min Rain = 0
KHA2 121745Z 18002KT 10/M07 A3036 RMK A01 T01001068  RH  030%=      5-min Rain = 0
KHA2 121746Z 15005KT 10/M07 A3036 RMK A01 T01021070  RH  029%=      5-min Rain = 0
KHA2 121747Z 15002KT 10/M07 A3036 RMK A01 T01021071  RH  029%=      5-min Rain = 0
KHA2 121748Z 14003KT 10/M07 A3035 RMK A01 T01041066  RH  030%=      5-min Rain = 0
KHA2 121749Z 23005KT 11/M06 A3035 RMK A01 T01061063  RH  030%=      5-min Rain = 0
KHA2 121750Z 21006KT 11/M06 A3035 RMK A01 T01071061  RH  030%=      5-min Rain = 0
KHA2 121751Z 21007KT 11/M06 A3035 RMK A01 T01081062  RH  030%=      5-min Rain = 0
KHA2 121752Z 21007KT 11/M07 A3035 RMK A01 T01051067  RH  029%=      5-min Rain = 0
KHA2 121753Z 23006KT 11/M07 A3035 RMK A01 T01051066  RH  029%=      5-min Rain = 0
KHA2 121754Z 24005KT 11/M07 A3035 RMK A01 T01091065  RH  029%=      5-min Rain = 0
KHA2 121755Z 26006KT 11/M07 A3035 RMK A01 T01071069  RH  028%=      5-min Rain = 0
KHA2 121756Z 23006KT 10/M07 A3035 RMK A01 T01041071  RH  028%=      5-min Rain = 0
KHA2 121757Z 23005KT 10/M07 A3035 RMK A01 T01041070  RH  029%=      5-min Rain = 0
KHA2 121758Z 22004KT 10/M07 A3035 RMK A01 T01041071  RH  028%=      5-min Rain = 0
KHA2 121759Z 22003KT 10/M07 A3035 RMK A01 T01041073  RH  028%=      5-min Rain = 0
KHA2 121800Z 02001KT 10/M08 A3035 RMK A01 T01021075  RH  028%=      5-min Rain = 0
KHA2 121801Z 35001KT 10/M08 A3035 RMK A01 T01031075  RH  028%=      5-min Rain = 0
KHA2 121802Z 23006KT 11/M07 A3035 RMK A01 T01051072  RH  028%=      5-min Rain = 0
KHA2 121803Z 22005KT 11/M07 A3035 RMK A01 T01061071  RH  028%=      5-min Rain = 0
KHA2 121804Z 20009KT 11/M07 A3035 RMK A01 T01101065  RH  029%=      5-min Rain = 0
KHA2 121805Z 22010KT 11/M07 A3035 RMK A01 T01141070  RH  027%=      5-min Rain = 0
KHA2 121806Z 23006KT 11/M08 A3035 RMK A01 T01091076  RH  027%=      5-min Rain = 0
KHA2 121807Z 22003KT 11/M08 A3035 RMK A01 T01071078  RH  027%=      5-min Rain = 0
KHA2 121808Z 23003KT 11/M08 A3035 RMK A01 T01071078  RH  027%=      5-min Rain = 0
KHA2 121809Z 23004KT 11/M08 A3035 RMK A01 T01061079  RH  026%=      5-min Rain = 0
KHA2 121810Z 24003KT 11/M08 A3035 RMK A01 T01051080  RH  026%=      5-min Rain = 0
KHA2 121811Z 24001KT 11/M08 A3035 RMK A01 T01061080  RH  026%=      5-min Rain = 0
KHA2 121812Z 14001KT 11/M08 A3035 RMK A01 T01091077  RH  026%=      5-min Rain = 0
KHA2 121813Z 11003KT 11/M08 A3035 RMK A01 T01121079  RH  025%=      5-min Rain = 0
KHA2 121814Z 09002KT 11/M08 A3035 RMK A01 T01121081  RH  025%=      5-min Rain = 0
KHA2 121815Z 07002KT 11/M08 A3035 RMK A01 T01131080  RH  025%=      5-min Rain = 0
KHA2 121816Z 04001KT 11/M08 A3035 RMK A01 T01141082  RH  024%=      5-min Rain = 0
KHA2 121817Z 04001KT 11/M08 A3035 RMK A01 T01141082  RH  025%=      5-min Rain = 0
KHA2 121818Z 14003KT 11/M08 A3035 RMK A01 T01131080  RH  025%=      5-min Rain = 0
KHA2 121819Z 16002KT 11/M08 A3035 RMK A01 T01121081  RH  025%=      5-min Rain = 0
KHA2 121820Z 20004KT 11/M08 A3034 RMK A01 T01121075  RH  026%=      5-min Rain = 0
KHA2 121821Z 20007G14KT 12/M07 A3034 RMK A01 T01151070  RH  027%=      5-min Rain = 0
KHA2 121822Z 22008KT 12/M07 A3034 RMK A01 T01181068  RH  027%=      5-min Rain = 0
KHA2 121823Z 19008KT 12/M07 A3034 RMK A01 T01191071  RH  026%=      5-min Rain = 0
KHA2 121824Z 18007G12KT 12/M08 A3034 RMK A01 T01161076  RH  025%=      5-min Rain = 0
KHA2 121825Z 18008KT 11/M08 A3034 RMK A01 T01131077  RH  026%=      5-min Rain = 0
KHA2 121826Z 19006KT 11/M08 A3034 RMK A01 T01121075  RH  026%=      5-min Rain = 0
KHA2 121827Z 19006KT 11/M08 A3034 RMK A01 T01131076  RH  026%=      5-min Rain = 0
KHA2 121828Z 20006G11KT 11/M08 A3034 RMK A01 T01121078  RH  026%=      5-min Rain = 0
KHA2 121829Z 22008KT 11/M08 A3034 RMK A01 T01121078  RH  025%=      5-min Rain = 0
KHA2 121830Z 21006KT 11/M08 A3034 RMK A01 T01121080  RH  025%=      5-min Rain = 0
KHA2 121831Z 20009KT 12/M08 A3034 RMK A01 T01151079  RH  025%=      5-min Rain = 0
KHA2 121832Z 21006KT 12/M08 A3034 RMK A01 T01151080  RH  025%=      5-min Rain = 0
KHA2 121833Z 23003KT 11/M08 A3034 RMK A01 T01141080  RH  025%=      5-min Rain = 0
KHA2 121834Z 26002KT 11/M08 A3034 RMK A01 T01111080  RH  025%=      5-min Rain = 0
KHA2 121835Z 17004KT 11/M08 A3034 RMK A01 T01111075  RH  026%=      5-min Rain = 0
KHA2 121836Z 11001KT 11/M08 A3034 RMK A01 T01111078  RH  026%=      5-min Rain = 0
KHA2 121837Z 28001KT 11/M08 A3034 RMK A01 T01111078  RH  026%=      5-min Rain = 0
KHA2 121838Z 22002KT 11/M08 A3033 RMK A01 T01131075  RH  026%=      5-min Rain = 0
KHA2 121839Z 23005KT 12/M07 A3034 RMK A01 T01171069  RH  026%=      5-min Rain = 0
KHA2 121840Z 22004G10KT 12/M07 A3033 RMK A01 T01201070  RH  026%=      5-min Rain = 0
KHA2 121841Z 16009KT 12/M07 A3033 RMK A01 T01211072  RH  025%=      5-min Rain = 0
KHA2 121842Z 14008KT 12/M08 A3033 RMK A01 T01211075  RH  025%=      5-min Rain = 0
KHA2 121843Z 15005KT 12/M08 A3033 RMK A01 T01191076  RH  025%=      5-min Rain = 0
KHA2 121844Z 18007KT 12/M07 A3033 RMK A01 T01231073  RH  025%=      5-min Rain = 0
KHA2 121845Z 19007KT 12/M08 A3033 RMK A01 T01231076  RH  024%=      5-min Rain = 0
KHA2 121846Z 21008KT 12/M08 A3033 RMK A01 T01211078  RH  024%=      5-min Rain = 0
KHA2 121847Z 23010KT 12/M08 A3033 RMK A01 T01231079  RH  024%=      5-min Rain = 0
KHA2 121848Z 25004KT 12/M09 A3033 RMK A01 T01191085  RH  023%=      5-min Rain = 0
KHA2 121849Z 26007KT 12/M08 A3033 RMK A01 T01151084  RH  024%=      5-min Rain = 0
KHA2 121850Z 25008KT 12/M08 A3033 RMK A01 T01151083  RH  024%=      5-min Rain = 0
KHA2 121851Z 24008KT 12/M08 A3033 RMK A01 T01151083  RH  024%=      5-min Rain = 0
KHA2 121852Z 24007KT 12/M08 A3032 RMK A01 T01161082  RH  024%=      5-min Rain = 0
KHA2 121853Z 25008KT 12/M08 A3032 RMK A01 T01191080  RH  024%=      5-min Rain = 0
KHA2 121854Z 25007KT 12/M08 A3032 RMK A01 T01191082  RH  024%=      5-min Rain = 0
KHA2 121855Z 27005KT 12/M08 A3032 RMK A01 T01201084  RH  023%=      5-min Rain = 0
KHA2 121856Z 29004KT 12/M09 A3032 RMK A01 T01181085  RH  023%=      5-min Rain = 0
KHA2 121857Z 28004KT 12/M08 A3032 RMK A01 T01161084  RH  024%=      5-min Rain = 0
KHA2 121858Z 29006KT 12/M08 A3032 RMK A01 T01171082  RH  024%=      5-min Rain = 0
KHA2 121859Z 28003KT 12/M08 A3032 RMK A01 T01171082  RH  024%=      5-min Rain = 0
KHA2 121900Z 23003KT 12/M08 A3032 RMK A01 T01171082  RH  024%=      5-min Rain = 0
KHA2 121901Z 17004KT 12/M08 A3032 RMK A01 T01191078  RH  024%=      5-min Rain = 0
KHA2 121902Z 15004KT 12/M08 A3032 RMK A01 T01211077  RH  024%=      5-min Rain = 0
KHA2 121903Z 13004KT 12/M08 A3032 RMK A01 T01211078  RH  024%=      5-min Rain = 0
KHA2 121904Z 21002KT 12/M08 A3032 RMK A01 T01181080  RH  024%=      5-min Rain = 0
KHA2 121905Z 23007KT 12/M08 A3032 RMK A01 T01191078  RH  025%=      5-min Rain = 0
KHA2 121906Z 23008KT 12/M08 A3032 RMK A01 T01231077  RH  024%=      5-min Rain = 0
KHA2 121907Z 22009KT 12/M08 A3032 RMK A01 T01241079  RH  023%=      5-min Rain = 0
KHA2 121908Z 23008KT 12/M08 A3032 RMK A01 T01221081  RH  023%=      5-min Rain = 0
KHA2 121909Z 23004KT 12/M08 A3032 RMK A01 T01191082  RH  024%=      5-min Rain = 0
KHA2 121910Z 23005KT 12/M08 A3032 RMK A01 T01211079  RH  024%=      5-min Rain = 0
KHA2 121911Z 24008KT 12/M08 A3032 RMK A01 T01241078  RH  024%=      5-min Rain = 0
KHA2 121912Z 25006KT 12/M08 A3032 RMK A01 T01221081  RH  023%=      5-min Rain = 0
KHA2 121913Z 28004KT 12/M08 A3032 RMK A01 T01191080  RH  024%=      5-min Rain = 0
KHA2 121914Z 29005KT 12/M08 A3031 RMK A01 T01191079  RH  024%=      5-min Rain = 0
KHA2 121915Z 32003KT 12/M08 A3031 RMK A01 T01191078  RH  024%=      5-min Rain = 0
KHA2 121916Z 23002KT 12/M08 A3031 RMK A01 T01211077  RH  024%=      5-min Rain = 0
KHA2 121917Z 12003KT 13/M07 A3031 RMK A01 T01251074  RH  024%=      5-min Rain = 0
KHA2 121918Z 11004KT 13/M08 A3031 RMK A01 T01251079  RH  023%=      5-min Rain = 0
KHA2 121919Z 11004KT 12/M08 A3031 RMK A01 T01241078  RH  024%=      5-min Rain = 0
KHA2 121920Z 13004KT 12/M08 A3031 RMK A01 T01241076  RH  024%=      5-min Rain = 0
KHA2 121921Z 18006KT 13/M08 A3031 RMK A01 T01261078  RH  023%=      5-min Rain = 0
KHA2 121922Z 19004KT 13/M08 A3031 RMK A01 T01271081  RH  023%=      5-min Rain = 0
KHA2 121923Z 18003KT 12/M08 A3031 RMK A01 T01241083  RH  023%=      5-min Rain = 0
KHA2 121924Z 18005KT 12/M08 A3031 RMK A01 T01241081  RH  023%=      5-min Rain = 0
KHA2 121925Z 21009KT 13/M08 A3031 RMK A01 T01261079  RH  023%=      5-min Rain = 0
KHA2 121926Z 23007KT 13/M08 A3031 RMK A01 T01271078  RH  023%=      5-min Rain = 0
KHA2 121927Z 21008KT 13/M08 A3031 RMK A01 T01291077  RH  023%=      5-min Rain = 0
KHA2 121928Z 20004G9KT 13/M08 A3031 RMK A01 T01301077  RH  023%=      5-min Rain = 0
KHA2 121929Z 19006KT 13/M08 A303 RMK A01 T01291080  RH  023%=      5-min Rain = 0
KHA2 121930Z 20003KT 13/M08 A303 RMK A01 T01251082  RH  023%=      5-min Rain = 0
KHA2 121931Z 21004G10KT 13/M08 A303 RMK A01 T01251080  RH  023%=      5-min Rain = 0
KHA2 121932Z 20008KT 13/M08 A303 RMK A01 T01251081  RH  023%=      5-min Rain = 0
KHA2 121933Z 19007KT 13/M08 A303 RMK A01 T01271078  RH  023%=      5-min Rain = 0
KHA2 121934Z 17006KT 13/M08 A303 RMK A01 T01321078  RH  022%=      5-min Rain = 0
KHA2 121935Z 19006KT 13/M08 A303 RMK A01 T01311081  RH  022%=      5-min Rain = 0
KHA2 121936Z 23006KT 13/M08 A303 RMK A01 T01311081  RH  022%=      5-min Rain = 0
KHA2 121937Z 24006KT 13/M08 A303 RMK A01 T01291081  RH  022%=      5-min Rain = 0
KHA2 121938Z 23003KT 13/M08 A303 RMK A01 T01271082  RH  022%=      5-min Rain = 0
KHA2 121939Z 25003KT 13/M08 A303 RMK A01 T01251082  RH  023%=      5-min Rain = 0
KHA2 121940Z 26007KT 13/M08 A303 RMK A01 T01261079  RH  023%=      5-min Rain = 0
KHA2 121941Z 28006KT 13/M08 A303 RMK A01 T01271079  RH  023%=      5-min Rain = 0
KHA2 121942Z 29005KT 13/M08 A3029 RMK A01 T01261081  RH  023%=      5-min Rain = 0
KHA2 121943Z 30003KT 13/M08 A3029 RMK A01 T01251080  RH  023%=      5-min Rain = 0
KHA2 121944Z 28002KT 13/M08 A3029 RMK A01 T01261080  RH  023%=      5-min Rain = 0
KHA2 121945Z 22004KT 13/M08 A3029 RMK A01 T01291076  RH  023%=      5-min Rain = 0
KHA2 121946Z 22005KT 13/M08 A3029 RMK A01 T01311075  RH  023%=      5-min Rain = 0
KHA2 121947Z 20003KT 13/M08 A3029 RMK A01 T01301077  RH  023%=      5-min Rain = 0
KHA2 121948Z 20002KT 13/M08 A3029 RMK A01 T01291077  RH  023%=      5-min Rain = 0
KHA2 121949Z 23005KT 13/M08 A3029 RMK A01 T01271077  RH  023%=      5-min Rain = 0
KHA2 121950Z 24011KT 13/M07 A3029 RMK A01 T01311074  RH  023%=      5-min Rain = 0
KHA2 121951Z 24008KT 13/M08 A3029 RMK A01 T01331077  RH  023%=      5-min Rain = 0
KHA2 121952Z 24007KT 13/M08 A3029 RMK A01 T01341075  RH  023%=      5-min Rain = 0
KHA2 121953Z 23005KT 14/M08 A3029 RMK A01 T01351077  RH  022%=      5-min Rain = 0
KHA2 121954Z 23004KT 13/M08 A3029 RMK A01 T01341077  RH  022%=      5-min Rain = 0
KHA2 121955Z 26007KT 13/M08 A3029 RMK A01 T01341077  RH  022%=      5-min Rain = 0
KHA2 121956Z 28006KT 13/M08 A3029 RMK A01 T01321078  RH  022%=      5-min Rain = 0
KHA2 121957Z 27005KT 13/M08 A3029 RMK A01 T01291079  RH  023%=      5-min Rain = 0
KHA2 121958Z 24005KT 13/M08 A3029 RMK A01 T01321075  RH  023%=      5-min Rain = 0
KHA2 121959Z 25009KT 14/M07 A3029 RMK A01 T01391072  RH  023%=      5-min Rain = 0
KHA2 122000Z 28009KT 14/M08 A3029 RMK A01 T01391077  RH  022%=      5-min Rain = 0
KHA2 122001Z 27009KT 14/M08 A3029 RMK A01 T01371078  RH  022%=      5-min Rain = 0
KHA2 122002Z 28005KT 13/M08 A3029 RMK A01 T01341079  RH  022%=      5-min Rain = 0
KHA2 122003Z 27007KT 13/M08 A3029 RMK A01 T01341077  RH  022%=      5-min Rain = 0
KHA2 122004Z 27007KT 14/M08 A3028 RMK A01 T01361078  RH  022%=      5-min Rain = 0
KHA2 122005Z 26007KT 13/M08 A3028 RMK A01 T01331081  RH  022%=      5-min Rain = 0
KHA2 122006Z 22007KT 13/M08 A3028 RMK A01 T01331078  RH  022%=      5-min Rain = 0
KHA2 122007Z 21007KT 14/M08 A3028 RMK A01 T01371077  RH  022%=      5-min Rain = 0
KHA2 122008Z 20008KT 14/M08 A3028 RMK A01 T01361080  RH  021%=      5-min Rain = 0
KHA2 122009Z 21006KT 14/M08 A3028 RMK A01 T01351081  RH  022%=      5-min Rain = 0
KHA2 122010Z 20003KT 13/M08 A3028 RMK A01 T01341081  RH  022%=      5-min Rain = 0
KHA2 122011Z 26002KT 13/M08 A3028 RMK A01 T01341082  RH  022%=      5-min Rain = 0
KHA2 122012Z 28003KT 13/M08 A3028 RMK A01 T01311083  RH  022%=      5-min Rain = 0
KHA2 122013Z 31003KT 13/M08 A3028 RMK A01 T01301083  RH  022%=      5-min Rain = 0
KHA2 122014Z 30004KT 13/M08 A3028 RMK A01 T01281083  RH  022%=      5-min Rain = 0
KHA2 122015Z 26005KT 13/M08 A3028 RMK A01 T01271083  RH  022%=      5-min Rain = 0
KHA2 122016Z 25007KT 13/M08 A3028 RMK A01 T01281080  RH  023%=      5-min Rain = 0
KHA2 122017Z 24005KT 13/M08 A3028 RMK A01 T01311078  RH  023%=      5-min Rain = 0
KHA2 122018Z 26007KT 13/M08 A3028 RMK A01 T01341079  RH  022%=      5-min Rain = 0
KHA2 122019Z 26007KT 14/M08 A3028 RMK A01 T01351079  RH  022%=      5-min Rain = 0
KHA2 122020Z 27008KT 14/M08 A3028 RMK A01 T01351079  RH  022%=      5-min Rain = 0
KHA2 122021Z 25007KT 14/M08 A3028 RMK A01 T01351080  RH  022%=      5-min Rain = 0
KHA2 122022Z 23009G14KT 13/M08 A3028 RMK A01 T01341080  RH  022%=      5-min Rain = 0
KHA2 122023Z 21011KT 13/M08 A3028 RMK A01 T01341080  RH  022%=      5-min Rain = 0
KHA2 122024Z 22007KT 14/M08 A3028 RMK A01 T01351080  RH  022%=      5-min Rain = 0
KHA2 122025Z 22009KT 14/M08 A3027 RMK A01 T01381078  RH  022%=      5-min Rain = 0
KHA2 122026Z 20012KT 14/M08 A3027 RMK A01 T01421077  RH  021%=      5-min Rain = 0
KHA2 122027Z 17007G12KT 14/M08 A3027 RMK A01 T01431081  RH  020%=      5-min Rain = 0
KHA2 122028Z 16005KT 14/M08 A3027 RMK A01 T01381083  RH  021%=      5-min Rain = 0
KHA2 122029Z 23010KT 14/M08 A3027 RMK A01 T01371081  RH  021%=      5-min Rain = 0
KHA2 122030Z 23010KT 14/M08 A3027 RMK A01 T01371081  RH  021%=      5-min Rain = 0
KHA2 122031Z 21006KT 14/M08 A3027 RMK A01 T01351082  RH  021%=      5-min Rain = 0
KHA2 122032Z 22003KT 14/M08 A3027 RMK A01 T01361080  RH  022%=      5-min Rain = 0
KHA2 122033Z 20005KT 14/M08 A3027 RMK A01 T01371080  RH  021%=      5-min Rain = 0
KHA2 122034Z 20003KT 14/M08 A3027 RMK A01 T01361082  RH  021%=      5-min Rain = 0
KHA2 122035Z 23006KT 14/M08 A3027 RMK A01 T01351080  RH  022%=      5-min Rain = 0
KHA2 122036Z 24006KT 14/M08 A3027 RMK A01 T01371079  RH  022%=      5-min Rain = 0
KHA2 122037Z 26006KT 14/M08 A3027 RMK A01 T01371080  RH  021%=      5-min Rain = 0
KHA2 122038Z 26007KT 14/M08 A3027 RMK A01 T01351081  RH  021%=      5-min Rain = 0
KHA2 122039Z 26005KT 14/M08 A3026 RMK A01 T01361081  RH  021%=      5-min Rain = 0
KHA2 122040Z 23002KT 13/M08 A3026 RMK A01 T01341083  RH  021%=      5-min Rain = 0
KHA2 122041Z 24003G10KT 13/M08 A3026 RMK A01 T01331083  RH  021%=      5-min Rain = 0
KHA2 122042Z 22009KT 13/M08 A3026 RMK A01 T01331081  RH  022%=      5-min Rain = 0
KHA2 122043Z 18004G9KT 14/M08 A3026 RMK A01 T01351081  RH  021%=      5-min Rain = 0
KHA2 122044Z 21005G11KT 14/M08 A3026 RMK A01 T01371081  RH  021%=      5-min Rain = 0
KHA2 122045Z 21010KT 14/M08 A3026 RMK A01 T01391080  RH  021%=      5-min Rain = 0
KHA2 122046Z 22008KT 14/M08 A3026 RMK A01 T01401082  RH  021%=      5-min Rain = 0
KHA2 122047Z 19010KT 14/M08 A3026 RMK A01 T01361084  RH  021%=      5-min Rain = 0
KHA2 122048Z 18007KT 14/M08 A3026 RMK A01 T01361083  RH  021%=      5-min Rain = 0
KHA2 122049Z 17008KT 14/M08 A3026 RMK A01 T01371082  RH  021%=      5-min Rain = 0
KHA2 122050Z 17009KT 14/M08 A3026 RMK A01 T01371083  RH  021%=      5-min Rain = 0
KHA2 122051Z 17007KT 14/M08 A3026 RMK A01 T01361083  RH  021%=      5-min Rain = 0
KHA2 122052Z 18009KT 14/M08 A3026 RMK A01 T01391079  RH  021%=      5-min Rain = 0
KHA2 122053Z 19008KT 14/M08 A3025 RMK A01 T01411080  RH  021%=      5-min Rain = 0
KHA2 122054Z 18005KT 14/M08 A3025 RMK A01 T01381082  RH  021%=      5-min Rain = 0
KHA2 122055Z 17003KT 14/M08 A3025 RMK A01 T01351084  RH  021%=      5-min Rain = 0
KHA2 122056Z 17003KT 13/M08 A3025 RMK A01 T01341083  RH  021%=      5-min Rain = 0
KHA2 122057Z 17005KT 14/M08 A3025 RMK A01 T01361081  RH  021%=      5-min Rain = 0
KHA2 122058Z 14006KT 14/M08 A3025 RMK A01 T01361082  RH  021%=      5-min Rain = 0
KHA2 122059Z 13006KT 14/M08 A3025 RMK A01 T01361083  RH  021%=      5-min Rain = 0
KHA2 122100Z 13005KT 14/M08 A3025 RMK A01 T01351083  RH  021%=      5-min Rain = 0
KHA2 122101Z 16007KT 14/M08 A3025 RMK A01 T01361081  RH  021%=      5-min Rain = 0
KHA2 122102Z 17006KT 14/M08 A3025 RMK A01 T01401080  RH  021%=      5-min Rain = 0
KHA2 122103Z 16007KT 14/M08 A3025 RMK A01 T01401082  RH  021%=      5-min Rain = 0
KHA2 122104Z 14006KT 14/M09 A3025 RMK A01 T01391085  RH  020%=      5-min Rain = 0
KHA2 122105Z 15004KT 14/M08 A3025 RMK A01 T01411081  RH  021%=      5-min Rain = 0
KHA2 122106Z 22006KT 14/M08 A3025 RMK A01 T01411083  RH  020%=      5-min Rain = 0
KHA2 122107Z 24007KT 14/M08 A3025 RMK A01 T01421080  RH  021%=      5-min Rain = 0
KHA2 122108Z 21006KT 14/M08 A3025 RMK A01 T01411082  RH  021%=      5-min Rain = 0
KHA2 122109Z 15006KT 14/M08 A3025 RMK A01 T01391082  RH  021%=      5-min Rain = 0
KHA2 122110Z 15004KT 14/M08 A3025 RMK A01 T01381083  RH  021%=      5-min Rain = 0
KHA2 122111Z 20004KT 14/M08 A3025 RMK A01 T01361083  RH  021%=      5-min Rain = 0
KHA2 122112Z 21006KT 14/M08 A3025 RMK A01 T01391079  RH  021%=      5-min Rain = 0
KHA2 122113Z 20008KT 14/M08 A3025 RMK A01 T01431078  RH  021%=      5-min Rain = 0
KHA2 122114Z 19006KT 15/M08 A3025 RMK A01 T01451079  RH  020%=      5-min Rain = 0
KHA2 122115Z 20004KT 14/M08 A3025 RMK A01 T01431082  RH  020%=      5-min Rain = 0
KHA2 122116Z 17006KT 14/M08 A3024 RMK A01 T01441078  RH  021%=      5-min Rain = 0
KHA2 122117Z 18010KT 15/M08 A3024 RMK A01 T01511075  RH  020%=      5-min Rain = 0
KHA2 122118Z 17009KT 15/M08 A3024 RMK A01 T01531078  RH  020%=      5-min Rain = 0
KHA2 122119Z 17010KT 15/M08 A3024 RMK A01 T01491082  RH  020%=      5-min Rain = 0
KHA2 122120Z 18012KT 15/M08 A3024 RMK A01 T01461082  RH  020%=      5-min Rain = 0
KHA2 122121Z 18009KT 15/M08 A3024 RMK A01 T01461080  RH  020%=      5-min Rain = 0
KHA2 122122Z 17008KT 15/M08 A3024 RMK A01 T01471080  RH  020%=      5-min Rain = 0
KHA2 122123Z 19007KT 15/M08 A3024 RMK A01 T01481079  RH  020%=      5-min Rain = 0
KHA2 122124Z 20007KT 15/M08 A3024 RMK A01 T01491078  RH  020%=      5-min Rain = 0
KHA2 122125Z 20009KT 15/M08 A3024 RMK A01 T01481080  RH  020%=      5-min Rain = 0
KHA2 122126Z 20005KT 14/M08 A3024 RMK A01 T01441083  RH  020%=      5-min Rain = 0
KHA2 122127Z 19005KT 14/M08 A3024 RMK A01 T01411082  RH  020%=      5-min Rain = 0
KHA2 122128Z 18003KT 14/M08 A3024 RMK A01 T01411083  RH  021%=      5-min Rain = 0
KHA2 122129Z 18002KT 14/M08 A3024 RMK A01 T01391083  RH  021%=      5-min Rain = 0
KHA2 122130Z 16006KT 14/M08 A3024 RMK A01 T01401083  RH  021%=      5-min Rain = 0
KHA2 122131Z 15005KT 14/M08 A3023 RMK A01 T01431084  RH  020%=      5-min Rain = 0
KHA2 122132Z 15007G12KT 14/M09 A3023 RMK A01 T01421086  RH  020%=      5-min Rain = 0
KHA2 122133Z 18007KT 14/M08 A3023 RMK A01 T01431083  RH  020%=      5-min Rain = 0
KHA2 122134Z 20006G11KT 15/M08 A3023 RMK A01 T01451081  RH  020%=      5-min Rain = 0
KHA2 122135Z 19011KT 15/M08 A3023 RMK A01 T01451081  RH  020%=      5-min Rain = 0
KHA2 122136Z 19013KT 14/M08 A3023 RMK A01 T01441082  RH  020%=      5-min Rain = 0
KHA2 122137Z 19013KT 15/M08 A3023 RMK A01 T01461081  RH  020%=      5-min Rain = 0
KHA2 122138Z 19011KT 15/M08 A3023 RMK A01 T01471081  RH  020%=      5-min Rain = 0
KHA2 122139Z 19010KT 15/M08 A3023 RMK A01 T01501078  RH  020%=      5-min Rain = 0
KHA2 122140Z 19007KT 15/M08 A3023 RMK A01 T01491080  RH  020%=      5-min Rain = 0
KHA2 122141Z 22009KT 15/M08 A3023 RMK A01 T01501078  RH  020%=      5-min Rain = 0
KHA2 122142Z 24011KT 15/M08 A3023 RMK A01 T01501079  RH  020%=      5-min Rain = 0
KHA2 122143Z 24006KT 15/M08 A3023 RMK A01 T01451082  RH  020%=      5-min Rain = 0
KHA2 122144Z 24002KT 14/M08 A3023 RMK A01 T01411081  RH  021%=      5-min Rain = 0
KHA2 122145Z 21004KT 14/M08 A3023 RMK A01 T01431078  RH  021%=      5-min Rain = 0
KHA2 122146Z 20006KT 14/M08 A3023 RMK A01 T01431079  RH  021%=      5-min Rain = 0
KHA2 122147Z 16005KT 15/M08 A3023 RMK A01 T01481076  RH  021%=      5-min Rain = 0
KHA2 122148Z 16007KT 15/M08 A3023 RMK A01 T01481079  RH  020%=      5-min Rain = 0
KHA2 122149Z 16010KT 15/M08 A3023 RMK A01 T01471081  RH  020%=      5-min Rain = 0
KHA2 122150Z 16009KT 15/M08 A3023 RMK A01 T01451082  RH  020%=      5-min Rain = 0
KHA2 122151Z 17005KT 14/M08 A3023 RMK A01 T01431082  RH  020%=      5-min Rain = 0
KHA2 122152Z 17003KT 14/M08 A3022 RMK A01 T01431081  RH  020%=      5-min Rain = 0
KHA2 122153Z 19005G10KT 14/M08 A3022 RMK A01 T01421081  RH  021%=      5-min Rain = 0
KHA2 122154Z 20012KT 14/M08 A3022 RMK A01 T01441080  RH  021%=      5-min Rain = 0
KHA2 122155Z 19009KT 15/M08 A3022 RMK A01 T01461080  RH  020%=      5-min Rain = 0
KHA2 122156Z 18012KT 15/M08 A3022 RMK A01 T01481079  RH  020%=      5-min Rain = 0
KHA2 122157Z 18008KT 15/M08 A3022 RMK A01 T01481081  RH  020%=      5-min Rain = 0
KHA2 122158Z 20007KT 15/M08 A3022 RMK A01 T01471080  RH  020%=      5-min Rain = 0
KHA2 122159Z 15009G16KT 15/M08 A3022 RMK A01 T01471081  RH  020%=      5-min Rain = 0
KHA2 122200Z 24009G16KT 15/M09 A3022 RMK A01 T01471086  RH  019%=      5-min Rain = 0
KHA2 122201Z 23010KT 15/M09 A3022 RMK A01 T01481089  RH  019%=      5-min Rain = 0
KHA2 122202Z 21012KT 15/M08 A3022 RMK A01 T01501083  RH  019%=      5-min Rain = 0
KHA2 122203Z 22012KT 15/M09 A3022 RMK A01 T01491088  RH  019%=      5-min Rain = 0
KHA2 122204Z 21009KT 14/M09 A3022 RMK A01 T01441092  RH  019%=      5-min Rain = 0
KHA2 122205Z 21010KT 15/M09 A3022 RMK A01 T01451089  RH  019%=      5-min Rain = 0
KHA2 122206Z 19008KT 15/M09 A3022 RMK A01 T01481087  RH  019%=      5-min Rain = 0
KHA2 122207Z 19007KT 15/M09 A3022 RMK A01 T01451087  RH  019%=      5-min Rain = 0
KHA2 122208Z 23005KT 14/M09 A3022 RMK A01 T01441086  RH  019%=      5-min Rain = 0
KHA2 122209Z 22001KT 14/M09 A3022 RMK A01 T01411088  RH  020%=      5-min Rain = 0
KHA2 122210Z 15004KT 14/M09 A3022 RMK A01 T01411086  RH  020%=      5-min Rain = 0
KHA2 122211Z 16004KT 14/M08 A3022 RMK A01 T01411084  RH  020%=      5-min Rain = 0
KHA2 122212Z 20005KT 14/M08 A3022 RMK A01 T01411083  RH  020%=      5-min Rain = 0
KHA2 122213Z 21005KT 14/M08 A3022 RMK A01 T01441081  RH  020%=      5-min Rain = 0
KHA2 122214Z 20005KT 14/M08 A3022 RMK A01 T01441082  RH  020%=      5-min Rain = 0
KHA2 122215Z 19007KT 15/M08 A3022 RMK A01 T01461083  RH  020%=      5-min Rain = 0
KHA2 122216Z 22006KT 15/M09 A3022 RMK A01 T01461086  RH  019%=      5-min Rain = 0
KHA2 122217Z 22005KT 15/M09 A3021 RMK A01 T01461086  RH  019%=      5-min Rain = 0
KHA2 122218Z 23007KT 15/M09 A3021 RMK A01 T01461086  RH  019%=      5-min Rain = 0
KHA2 122219Z 24008KT 15/M08 A3021 RMK A01 T01451084  RH  020%=      5-min Rain = 0
KHA2 122220Z 20010G15KT 15/M08 A3021 RMK A01 T01451084  RH  020%=      5-min Rain = 0
KHA2 122221Z 20013KT 15/M08 A3021 RMK A01 T01491080  RH  020%=      5-min Rain = 0
KHA2 122222Z 20010KT 15/M08 A3021 RMK A01 T01511080  RH  019%=      5-min Rain = 0
KHA2 122223Z 18011KT 15/M08 A3021 RMK A01 T01501082  RH  019%=      5-min Rain = 0
KHA2 122224Z 18010KT 15/M08 A3021 RMK A01 T01471083  RH  020%=      5-min Rain = 0
KHA2 122225Z 18008KT 15/M08 A3021 RMK A01 T01451082  RH  020%=      5-min Rain = 0
KHA2 122226Z 18005KT 15/M08 A3021 RMK A01 T01451081  RH  020%=      5-min Rain = 0
KHA2 122227Z 19007G13KT 15/M08 A3021 RMK A01 T01461080  RH  020%=      5-min Rain = 0
KHA2 122228Z 19011KT 15/M08 A3021 RMK A01 T01461081  RH  020%=      5-min Rain = 0
KHA2 122229Z 18010KT 15/M08 A3021 RMK A01 T01461081  RH  020%=      5-min Rain = 0
KHA2 122230Z 18008KT 15/M08 A3021 RMK A01 T01451081  RH  020%=      5-min Rain = 0
KHA2 122231Z 18005KT 15/M08 A3021 RMK A01 T01461081  RH  020%=      5-min Rain = 0
KHA2 122232Z 17008KT 15/M08 A3021 RMK A01 T01451081  RH  020%=      5-min Rain = 0
KHA2 122233Z 15010KT 15/M08 A3021 RMK A01 T01471080  RH  020%=      5-min Rain = 0
KHA2 122234Z 17009KT 15/M08 A3021 RMK A01 T01481081  RH  020%=      5-min Rain = 0
KHA2 122235Z 17008KT 15/M08 A3021 RMK A01 T01461084  RH  020%=      5-min Rain = 0
KHA2 122236Z 19008KT 15/M08 A3021 RMK A01 T01451083  RH  020%=      5-min Rain = 0
KHA2 122237Z 20006KT 15/M09 A3021 RMK A01 T01451085  RH  020%=      5-min Rain = 0
KHA2 122238Z 20009KT 15/M09 A3021 RMK A01 T01451087  RH  019%=      5-min Rain = 0
KHA2 122239Z 22009KT 14/M09 A302 RMK A01 T01431089  RH  019%=      5-min Rain = 0
KHA2 122240Z 20011KT 15/M09 A302 RMK A01 T01451087  RH  019%=      5-min Rain = 0
KHA2 122241Z 22009KT 15/M09 A302 RMK A01 T01471087  RH  019%=      5-min Rain = 0
KHA2 122242Z 21009KT 15/M09 A3021 RMK A01 T01471089  RH  019%=      5-min Rain = 0
KHA2 122243Z 21008KT 15/M09 A302 RMK A01 T01461089  RH  019%=      5-min Rain = 0
KHA2 122244Z 23005KT 14/M09 A302 RMK A01 T01441088  RH  019%=      5-min Rain = 0
KHA2 122245Z 22004KT 14/M09 A302 RMK A01 T01421088  RH  019%=      5-min Rain = 0
KHA2 122246Z 19006KT 15/M09 A302 RMK A01 T01451085  RH  020%=      5-min Rain = 0
KHA2 122247Z 22006KT 15/M09 A302 RMK A01 T01461085  RH  019%=      5-min Rain = 0
KHA2 122248Z 24004KT 15/M09 A302 RMK A01 T01461086  RH  019%=      5-min Rain = 0
KHA2 122249Z 22006KT 15/M09 A302 RMK A01 T01451086  RH  019%=      5-min Rain = 0
KHA2 122250Z 21005KT 14/M09 A302 RMK A01 T01441087  RH  019%=      5-min Rain = 0
KHA2 122251Z 18009G14KT 14/M09 A302 RMK A01 T01441086  RH  020%=      5-min Rain = 0
KHA2 122252Z 17005KT 14/M09 A302 RMK A01 T01441086  RH  019%=      5-min Rain = 0
KHA2 122253Z 20006KT 14/M09 A302 RMK A01 T01441086  RH  020%=      5-min Rain = 0
KHA2 122254Z 19007KT 15/M08 A302 RMK A01 T01451084  RH  020%=      5-min Rain = 0
KHA2 122255Z 18008KT 15/M08 A302 RMK A01 T01471083  RH  020%=      5-min Rain = 0
KHA2 122256Z 16009KT 15/M08 A302 RMK A01 T01481084  RH  019%=      5-min Rain = 0
KHA2 122257Z 17011KT 14/M09 A302 RMK A01 T01441087  RH  019%=      5-min Rain = 0
KHA2 122258Z 17008KT 14/M09 A302 RMK A01 T01421087  RH  020%=      5-min Rain = 0
KHA2 122259Z 16006KT 14/M09 A302 RMK A01 T01401087  RH  020%=      5-min Rain = 0
KHA2 122300Z 18005KT 14/M09 A302 RMK A01 T01391086  RH  020%=      5-min Rain = 0
KHA2 122301Z 19006KT 14/M09 A302 RMK A01 T01401085  RH  020%=      5-min Rain = 0
KHA2 122302Z 19006KT 14/M08 A302 RMK A01 T01431083  RH  020%=      5-min Rain = 0
KHA2 122303Z 22010KT 14/M09 A302 RMK A01 T01441085  RH  020%=      5-min Rain = 0
KHA2 122304Z 22008KT 15/M09 A302 RMK A01 T01461086  RH  019%=      5-min Rain = 0
KHA2 122305Z 21007KT 14/M09 A302 RMK A01 T01441088  RH  019%=      5-min Rain = 0
KHA2 122306Z 18005KT 14/M09 A302 RMK A01 T01431087  RH  019%=      5-min Rain = 0
KHA2 122307Z 19007KT 14/M09 A302 RMK A01 T01441087  RH  019%=      5-min Rain = 0
KHA2 122308Z 21008KT 14/M09 A302 RMK A01 T01421087  RH  020%=      5-min Rain = 0
KHA2 122309Z 20007KT 14/M09 A302 RMK A01 T01441085  RH  020%=      5-min Rain = 0
KHA2 122310Z 20005KT 15/M09 A302 RMK A01 T01451086  RH  019%=      5-min Rain = 0
KHA2 122311Z 18003KT 14/M09 A302 RMK A01 T01441087  RH  019%=      5-min Rain = 0
KHA2 122312Z 20006KT 14/M09 A3019 RMK A01 T01441086  RH  019%=      5-min Rain = 0
KHA2 122313Z 20006KT 14/M09 A3019 RMK A01 T01441086  RH  019%=      5-min Rain = 0
KHA2 122314Z 16009KT 14/M09 A3019 RMK A01 T01441087  RH  019%=      5-min Rain = 0
KHA2 122315Z 16008KT 14/M09 A3019 RMK A01 T01431086  RH  020%=      5-min Rain = 0
KHA2 122316Z 16008KT 14/M09 A3019 RMK A01 T01441085  RH  020%=      5-min Rain = 0
KHA2 122317Z 16007KT 14/M09 A3019 RMK A01 T01441085  RH  020%=      5-min Rain = 0
KHA2 122318Z 17006KT 14/M09 A3019 RMK A01 T01441085  RH  020%=      5-min Rain = 0
KHA2 122319Z 19008KT 15/M09 A3019 RMK A01 T01451085  RH  020%=      5-min Rain = 0
KHA2 122320Z 21005KT 15/M08 A3019 RMK A01 T01451084  RH  020%=      5-min Rain = 0
KHA2 122321Z 20006KT 15/M08 A3019 RMK A01 T01451084  RH  020%=      5-min Rain = 0
KHA2 122322Z 17008KT 15/M08 A3019 RMK A01 T01451084  RH  020%=      5-min Rain = 0
KHA2 122323Z 21009KT 15/M08 A3019 RMK A01 T01451084  RH  020%=      5-min Rain = 0
KHA2 122324Z 20010KT 14/M09 A3019 RMK A01 T01441085  RH  020%=      5-min Rain = 0
KHA2 122325Z 20010KT 14/M09 A3019 RMK A01 T01441085  RH  020%=      5-min Rain = 0
KHA2 122326Z 20011KT 14/M09 A3019 RMK A01 T01421085  RH  020%=      5-min Rain = 0
KHA2 122327Z 19009KT 14/M09 A3019 RMK A01 T01401085  RH  020%=      5-min Rain = 0
KHA2 122328Z 19007KT 14/M09 A3019 RMK A01 T01391086  RH  020%=      5-min Rain = 0
KHA2 122329Z 21007KT 14/M08 A3019 RMK A01 T01401084  RH  020%=      5-min Rain = 0
KHA2 122330Z 20008KT 14/M08 A3019 RMK A01 T01421083  RH  020%=      5-min Rain = 0
KHA2 122331Z 16004KT 14/M08 A3019 RMK A01 T01421084  RH  020%=      5-min Rain = 0
KHA2 122332Z 18008KT 14/M08 A3019 RMK A01 T01421083  RH  020%=      5-min Rain = 0
KHA2 122333Z 19008KT 14/M08 A3019 RMK A01 T01421084  RH  020%=      5-min Rain = 0
KHA2 122334Z 18007KT 14/M09 A3019 RMK A01 T01401086  RH  020%=      5-min Rain = 0
KHA2 122335Z 19006KT 14/M09 A3019 RMK A01 T01391085  RH  020%=      5-min Rain = 0
KHA2 122336Z 20007KT 14/M09 A3019 RMK A01 T01391085  RH  020%=      5-min Rain = 0
KHA2 122337Z 21008KT 14/M09 A3019 RMK A01 T01401085  RH  020%=      5-min Rain = 0
KHA2 122338Z 19008KT 14/M09 A302 RMK A01 T01401085  RH  020%=      5-min Rain = 0
KHA2 122339Z 19006KT 14/M09 A3019 RMK A01 T01401085  RH  020%=      5-min Rain = 0
KHA2 122340Z 19009KT 14/M09 A3019 RMK A01 T01401085  RH  020%=      5-min Rain = 0
KHA2 122341Z 18010KT 14/M09 A3019 RMK A01 T01401085  RH  020%=      5-min Rain = 0
KHA2 122342Z 18009KT 14/M09 A3019 RMK A01 T01391085  RH  020%=      5-min Rain = 0
KHA2 122343Z 18010KT 14/M09 A302 RMK A01 T01391085  RH  020%=      5-min Rain = 0
KHA2 122344Z 18011KT 14/M09 A302 RMK A01 T01381085  RH  020%=      5-min Rain = 0
KHA2 122345Z 17010KT 14/M09 A302 RMK A01 T01371086  RH  021%=      5-min Rain = 0
KHA2 122346Z 18009KT 14/M09 A302 RMK A01 T01371085  RH  021%=      5-min Rain = 0
KHA2 122347Z 17007KT 14/M09 A302 RMK A01 T01361085  RH  021%=      5-min Rain = 0
KHA2 122348Z 18009KT 14/M09 A302 RMK A01 T01361086  RH  021%=      5-min Rain = 0
KHA2 122349Z 18008KT 14/M09 A302 RMK A01 T01361085  RH  021%=      5-min Rain = 0
KHA2 122350Z 17009KT 14/M09 A302 RMK A01 T01361086  RH  021%=      5-min Rain = 0
KHA2 122351Z 17007KT 14/M09 A302 RMK A01 T01351086  RH  021%=      5-min Rain = 0
KHA2 122352Z 18010KT 14/M09 A302 RMK A01 T01351086  RH  021%=      5-min Rain = 0
KHA2 122353Z 18010KT 14/M09 A302 RMK A01 T01351086  RH  021%=      5-min Rain = 0
KHA2 122354Z 17008KT 13/M09 A302 RMK A01 T01341086  RH  021%=      5-min Rain = 0
KHA2 122355Z 17009KT 13/M09 A302 RMK A01 T01331086  RH  021%=      5-min Rain = 0
KHA2 122356Z 17012KT 13/M09 A302 RMK A01 T01321087  RH  021%=      5-min Rain = 0
KHA2 122357Z 18011KT 13/M09 A302 RMK A01 T01311087  RH  021%=      5-min Rain = 0
KHA2 122358Z 18010KT 13/M09 A302 RMK A01 T01301087  RH  021%=      5-min Rain = 0
KHA2 122359Z 18009KT 13/M09 A302 RMK A01 T01291087  RH  021%=      5-min Rain = 0
KHA2 130000Z 18010KT 13/M09 A302 RMK A01 T01281087  RH  021%=      5-min Rain = 0
KHA2 130001Z 18008KT 13/M09 A302 RMK A01 T01271088  RH  021%=      5-min Rain = 0
KHA2 130002Z 19007KT 13/M09 A302 RMK A01 T01261088  RH  022%=      5-min Rain = 0
KHA2 130003Z 18006KT 13/M09 A302 RMK A01 T01261089  RH  021%=      5-min Rain = 0
KHA2 130004Z 17007KT 13/M09 A302 RMK A01 T01251089  RH  022%=      5-min Rain = 0
KHA2 130005Z 18008KT 12/M09 A302 RMK A01 T01231089  RH  022%=      5-min Rain = 0
KHA2 130006Z 18007KT 12/M09 A302 RMK A01 T01221089  RH  022%=      5-min Rain = 0
KHA2 130007Z 18007KT 12/M09 A302 RMK A01 T01211089  RH  022%=      5-min Rain = 0
KHA2 130008Z 18007KT 12/M09 A302 RMK A01 T01211089  RH  022%=      5-min Rain = 0
KHA2 130009Z 18007KT 12/M09 A302 RMK A01 T01211089  RH  022%=      5-min Rain = 0
KHA2 130010Z 18007KT 12/M09 A302 RMK A01 T01201089  RH  022%=      5-min Rain = 0
KHA2 130011Z 17006KT 12/M09 A302 RMK A01 T01191090  RH  022%=      5-min Rain = 0
KHA2 130012Z 18006KT 12/M09 A302 RMK A01 T01181090  RH  022%=      5-min Rain = 0
KHA2 130013Z 18007KT 12/M09 A302 RMK A01 T01171090  RH  023%=      5-min Rain = 0
KHA2 130014Z 18007KT 12/M09 A302 RMK A01 T01161090  RH  023%=      5-min Rain = 0
KHA2 130015Z 18007KT 12/M09 A302 RMK A01 T01161089  RH  023%=      5-min Rain = 0
KHA2 130016Z 18007KT 12/M09 A302 RMK A01 T01161089  RH  023%=      5-min Rain = 0
KHA2 130017Z 18007KT 12/M09 A302 RMK A01 T01151089  RH  023%=      5-min Rain = 0
KHA2 130018Z 18006KT 11/M09 A302 RMK A01 T01141089  RH  023%=      5-min Rain = 0
KHA2 130019Z 18007KT 11/M09 A302 RMK A01 T01131089  RH  023%=      5-min Rain = 0
KHA2 130020Z 18007KT 11/M09 A302 RMK A01 T01121090  RH  023%=      5-min Rain = 0
KHA2 130021Z 17007KT 11/M09 A302 RMK A01 T01111089  RH  024%=      5-min Rain = 0
KHA2 130022Z 17008KT 11/M09 A302 RMK A01 T01111089  RH  024%=      5-min Rain = 0
KHA2 130023Z 18008KT 11/M09 A302 RMK A01 T01111089  RH  024%=      5-min Rain = 0
KHA2 130024Z 17007KT 11/M09 A302 RMK A01 T01101089  RH  024%=      5-min Rain = 0
KHA2 130025Z 17008KT 11/M09 A302 RMK A01 T01101089  RH  024%=      5-min Rain = 0
KHA2 130026Z 18007KT 11/M09 A302 RMK A01 T01091090  RH  024%=      5-min Rain = 0
KHA2 130027Z 18007KT 11/M09 A302 RMK A01 T01071090  RH  024%=      5-min Rain = 0
KHA2 130028Z 18007KT 11/M09 A302 RMK A01 T01061090  RH  024%=      5-min Rain = 0
KHA2 130029Z 19007KT 11/M09 A302 RMK A01 T01051090  RH  024%=      5-min Rain = 0
KHA2 130030Z 19007KT 11/M09 A302 RMK A01 T01051090  RH  024%=      5-min Rain = 0
KHA2 130031Z 19007KT 10/M09 A302 RMK A01 T01041090  RH  024%=      5-min Rain = 0
KHA2 130032Z 18007KT 10/M09 A302 RMK A01 T01041091  RH  024%=      5-min Rain = 0
KHA2 130033Z 18007KT 10/M09 A302 RMK A01 T01031092  RH  025%=      5-min Rain = 0
KHA2 130034Z 18007KT 10/M09 A302 RMK A01 T01011092  RH  025%=      5-min Rain = 0
KHA2 130035Z 18007KT 10/M09 A302 RMK A01 T01001092  RH  025%=      5-min Rain = 0
KHA2 130036Z 18007KT 10/M09 A302 RMK A01 T00991092  RH  025%=      5-min Rain = 0
KHA2 130037Z 18007KT 10/M09 A302 RMK A01 T00981092  RH  025%=      5-min Rain = 0
KHA2 130038Z 18007KT 10/M09 A302 RMK A01 T00971092  RH  025%=      5-min Rain = 0
KHA2 130039Z 18007KT 10/M09 A302 RMK A01 T00961092  RH  025%=      5-min Rain = 0
KHA2 130040Z 18008KT 10/M09 A302 RMK A01 T00951093  RH  026%=      5-min Rain = 0
KHA2 130041Z 18008KT 10/M09 A302 RMK A01 T00951092  RH  026%=      5-min Rain = 0
KHA2 130042Z 18008KT 10/M09 A302 RMK A01 T00951092  RH  026%=      5-min Rain = 0
KHA2 130043Z 18008KT 09/M09 A302 RMK A01 T00941092  RH  026%=      5-min Rain = 0
KHA2 130044Z 18008KT 09/M09 A302 RMK A01 T00931092  RH  026%=      5-min Rain = 0
KHA2 130045Z 18008KT 09/M09 A302 RMK A01 T00921091  RH  026%=      5-min Rain = 0
KHA2 130046Z 18008KT 09/M09 A3021 RMK A01 T00911091  RH  027%=      5-min Rain = 0
KHA2 130047Z 18008KT 09/M09 A3021 RMK A01 T00901090  RH  027%=      5-min Rain = 0
KHA2 130048Z 18008KT 09/M09 A3021 RMK A01 T00891091  RH  027%=      5-min Rain = 0
KHA2 130049Z 18008KT 09/M09 A3021 RMK A01 T00881091  RH  027%=      5-min Rain = 0
KHA2 130050Z 17007KT 09/M09 A3021 RMK A01 T00871091  RH  027%=      5-min Rain = 0
KHA2 130051Z 17007KT 09/M09 A3021 RMK A01 T00861091  RH  028%=      5-min Rain = 0
KHA2 130052Z 17008KT 08/M09 A3021 RMK A01 T00841091  RH  028%=      5-min Rain = 0
KHA2 130053Z 17008KT 08/M09 A3021 RMK A01 T00831091  RH  028%=      5-min Rain = 0
KHA2 130054Z 17008KT 08/M09 A3021 RMK A01 T00821091  RH  028%=      5-min Rain = 0
KHA2 130055Z 17008KT 08/M09 A3021 RMK A01 T00811092  RH  028%=      5-min Rain = 0
KHA2 130056Z 17008KT 08/M09 A3021 RMK A01 T00811092  RH  028%=      5-min Rain = 0
KHA2 130057Z 17008KT 08/M09 A3021 RMK A01 T00801092  RH  028%=      5-min Rain = 0
KHA2 130058Z 17007KT 08/M09 A3021 RMK A01 T00781093  RH  029%=      5-min Rain = 0
KHA2 130059Z 17008KT 08/M09 A3021 RMK A01 T00771094  RH  029%=      5-min Rain = 0
KHA2 130100Z 17007KT 08/M09 A3021 RMK A01 T00761094  RH  029%=      5-min Rain = 0
KHA2 130101Z 17007KT 07/M09 A3021 RMK A01 T00741094  RH  029%=      5-min Rain = 0
KHA2 130102Z 17008KT 07/M10 A3021 RMK A01 T00731095  RH  029%=      5-min Rain = 0
KHA2 130103Z 17008KT 07/M10 A3021 RMK A01 T00711095  RH  029%=      5-min Rain = 0
KHA2 130104Z 17008KT 07/M10 A3021 RMK A01 T00701096  RH  030%=      5-min Rain = 0
KHA2 130105Z 17008KT 07/M10 A3021 RMK A01 T00701096  RH  030%=      5-min Rain = 0
KHA2 130106Z 17008KT 07/M10 A3021 RMK A01 T00691096  RH  030%=      5-min Rain = 0
KHA2 130107Z 17008KT 07/M10 A3021 RMK A01 T00691096  RH  030%=      5-min Rain = 0
KHA2 130108Z 17008KT 07/M10 A3021 RMK A01 T00681096  RH  030%=      5-min Rain = 0
KHA2 130109Z 17008KT 07/M10 A3021 RMK A01 T00681096  RH  030%=      5-min Rain = 0
KHA2 130110Z 17008KT 07/M10 A3021 RMK A01 T00671096  RH  030%=      5-min Rain = 0
KHA2 130111Z 17008KT 07/M10 A3021 RMK A01 T00661097  RH  030%=      5-min Rain = 0
KHA2 130112Z 17008KT 07/M10 A3021 RMK A01 T00661097  RH  030%=      5-min Rain = 0
KHA2 130113Z 17008KT 07/M10 A3021 RMK A01 T00661096  RH  030%=      5-min Rain = 0
KHA2 130114Z 17008KT 07/M10 A3021 RMK A01 T00651096  RH  030%=      5-min Rain = 0
KHA2 130115Z 17008KT 06/M10 A3021 RMK A01 T00641096  RH  031%=      5-min Rain = 0
KHA2 130116Z 17008KT 06/M10 A3021 RMK A01 T00631096  RH  031%=      5-min Rain = 0
KHA2 130117Z 17008KT 06/M10 A3021 RMK A01 T00631096  RH  031%=      5-min Rain = 0
KHA2 130118Z 17008KT 06/M10 A3021 RMK A01 T00631095  RH  031%=      5-min Rain = 0
KHA2 130119Z 16008KT 06/M10 A3021 RMK A01 T00621095  RH  031%=      5-min Rain = 0
KHA2 130120Z 16008KT 06/M10 A3021 RMK A01 T00621095  RH  031%=      5-min Rain = 0
KHA2 130121Z 17008KT 06/M10 A3021 RMK A01 T00611096  RH  031%=      5-min Rain = 0
KHA2 130122Z 17008KT 06/M10 A3021 RMK A01 T00611096  RH  032%=      5-min Rain = 0
KHA2 130123Z 17008KT 06/M10 A3021 RMK A01 T00601096  RH  032%=      5-min Rain = 0
KHA2 130124Z 17008KT 06/M10 A3021 RMK A01 T00591096  RH  032%=      5-min Rain = 0
KHA2 130125Z 17008KT 06/M10 A3021 RMK A01 T00591096  RH  032%=      5-min Rain = 0
KHA2 130126Z 17008KT 06/M10 A3021 RMK A01 T00581096  RH  032%=      5-min Rain = 0
KHA2 130127Z 17008KT 06/M10 A3021 RMK A01 T00571096  RH  032%=      5-min Rain = 0
KHA2 130128Z 17008KT 06/M10 A3021 RMK A01 T00571096  RH  032%=      5-min Rain = 0
KHA2 130129Z 17008KT 06/M10 A3021 RMK A01 T00571095  RH  033%=      5-min Rain = 0
KHA2 130130Z 17008KT 06/M10 A3021 RMK A01 T00561096  RH  033%=      5-min Rain = 0
KHA2 130131Z 17008KT 06/M10 A3021 RMK A01 T00561095  RH  033%=      5-min Rain = 0
KHA2 130132Z 17008KT 06/M10 A3022 RMK A01 T00561095  RH  033%=      5-min Rain = 0
KHA2 130133Z 17008KT 06/M10 A3022 RMK A01 T00561095  RH  033%=      5-min Rain = 0
KHA2 130134Z 17008KT 06/M09 A3022 RMK A01 T00571094  RH  033%=      5-min Rain = 0
KHA2 130135Z 17008KT 06/M09 A3022 RMK A01 T00571094  RH  033%=      5-min Rain = 0
KHA2 130136Z 17008KT 06/M09 A3022 RMK A01 T00571094  RH  033%=      5-min Rain = 0
KHA2 130137Z 17008KT 06/M09 A3022 RMK A01 T00571093  RH  033%=      5-min Rain = 0
KHA2 130138Z 17008KT 06/M09 A3022 RMK A01 T00581093  RH  033%=      5-min Rain = 0
KHA2 130139Z 17008KT 06/M09 A3022 RMK A01 T00581093  RH  033%=      5-min Rain = 0
KHA2 130140Z 17008KT 06/M09 A3022 RMK A01 T00591092  RH  033%=      5-min Rain = 0
KHA2 130141Z 16008KT 06/M09 A3022 RMK A01 T00581093  RH  033%=      5-min Rain = 0
KHA2 130142Z 17008KT 06/M09 A3022 RMK A01 T00581093  RH  033%=      5-min Rain = 0
KHA2 130143Z 17008KT 06/M09 A3022 RMK A01 T00581093  RH  033%=      5-min Rain = 0
KHA2 130144Z 17008KT 06/M09 A3022 RMK A01 T00581093  RH  033%=      5-min Rain = 0
KHA2 130145Z 17008KT 06/M09 A3022 RMK A01 T00571093  RH  033%=      5-min Rain = 0
KHA2 130146Z 17008KT 06/M09 A3022 RMK A01 T00571094  RH  033%=      5-min Rain = 0
KHA2 130147Z 17007KT 06/M09 A3022 RMK A01 T00561094  RH  033%=      5-min Rain = 0
KHA2 130148Z 17008KT 06/M09 A3022 RMK A01 T00561094  RH  033%=      5-min Rain = 0
KHA2 130149Z 17007KT 06/M09 A3022 RMK A01 T00561094  RH  033%=      5-min Rain = 0
KHA2 130150Z 16007KT 06/M09 A3022 RMK A01 T00551094  RH  033%=      5-min Rain = 0
KHA2 130151Z 16007KT 06/M09 A3022 RMK A01 T00551094  RH  033%=      5-min Rain = 0
KHA2 130152Z 16007KT 05/M09 A3022 RMK A01 T00541094  RH  033%=      5-min Rain = 0
KHA2 130153Z 16007KT 05/M09 A3022 RMK A01 T00531094  RH  034%=      5-min Rain = 0
KHA2 130154Z 16007KT 05/M10 A3022 RMK A01 T00531095  RH  034%=      5-min Rain = 0
KHA2 130155Z 17007KT 05/M09 A3022 RMK A01 T00521094  RH  034%=      5-min Rain = 0
KHA2 130156Z 17007KT 05/M09 A3022 RMK A01 T00521094  RH  034%=      5-min Rain = 0
KHA2 130157Z 17007KT 05/M10 A3022 RMK A01 T00511095  RH  034%=      5-min Rain = 0
KHA2 130158Z 17007KT 05/M10 A3022 RMK A01 T00511095  RH  034%=      5-min Rain = 0
KHA2 130159Z 17007KT 05/M10 A3022 RMK A01 T00501095  RH  034%=      5-min Rain = 0
KHA2 130200Z 16007KT 05/M10 A3022 RMK A01 T00501095  RH  034%=      5-min Rain = 0
KHA2 130201Z 17007KT 05/M10 A3022 RMK A01 T00491095  RH  034%=      5-min Rain = 0
KHA2 130202Z 17007KT 05/M10 A3022 RMK A01 T00491095  RH  034%=      5-min Rain = 0
KHA2 130203Z 17007KT 05/M10 A3022 RMK A01 T00491095  RH  034%=      5-min Rain = 0
KHA2 130204Z 17007KT 05/M10 A3022 RMK A01 T00491095  RH  035%=      5-min Rain = 0
KHA2 130205Z 17007KT 05/M10 A3022 RMK A01 T00491095  RH  035%=      5-min Rain = 0
KHA2 130206Z 17007KT 05/M10 A3022 RMK A01 T00481095  RH  035%=      5-min Rain = 0
KHA2 130207Z 17008KT 05/M10 A3022 RMK A01 T00481095  RH  035%=      5-min Rain = 0
KHA2 130208Z 17008KT 05/M10 A3022 RMK A01 T00491095  RH  035%=      5-min Rain = 0
KHA2 130209Z 17007KT 05/M10 A3022 RMK A01 T00481095  RH  035%=      5-min Rain = 0
KHA2 130210Z 17007KT 05/M10 A3022 RMK A01 T00481095  RH  035%=      5-min Rain = 0
KHA2 130211Z 17007KT 05/M10 A3022 RMK A01 T00481095  RH  035%=      5-min Rain = 0
KHA2 130212Z 17008KT 05/M10 A3022 RMK A01 T00471095  RH  035%=      5-min Rain = 0
KHA2 130213Z 17008KT 05/M10 A3022 RMK A01 T00461096  RH  035%=      5-min Rain = 0
KHA2 130214Z 17008KT 05/M10 A3022 RMK A01 T00461096  RH  035%=      5-min Rain = 0
KHA2 130215Z 16008KT 05/M10 A3022 RMK A01 T00451096  RH  035%=      5-min Rain = 0
KHA2 130216Z 16008KT 05/M10 A3022 RMK A01 T00451096  RH  035%=      5-min Rain = 0
KHA2 130217Z 17008KT 04/M10 A3022 RMK A01 T00441096  RH  035%=      5-min Rain = 0
KHA2 130218Z 17008KT 04/M10 A3022 RMK A01 T00441095  RH  036%=      5-min Rain = 0
KHA2 130219Z 17008KT 04/M10 A3022 RMK A01 T00441095  RH  036%=      5-min Rain = 0
KHA2 130220Z 17008KT 04/M10 A3022 RMK A01 T00441095  RH  036%=      5-min Rain = 0
KHA2 130221Z 17008KT 04/M10 A3022 RMK A01 T00431095  RH  036%=      5-min Rain = 0
KHA2 130222Z 17008KT 04/M10 A3022 RMK A01 T00431095  RH  036%=      5-min Rain = 0
KHA2 130223Z 17008KT 04/M10 A3022 RMK A01 T00431095  RH  036%=      5-min Rain = 0
KHA2 130224Z 17008KT 04/M09 A3022 RMK A01 T00431094  RH  036%=      5-min Rain = 0
KHA2 130225Z 17008KT 04/M10 A3022 RMK A01 T00431095  RH  036%=      5-min Rain = 0
KHA2 130226Z 17008KT 04/M09 A3022 RMK A01 T00431094  RH  036%=      5-min Rain = 0
KHA2 130227Z 17008KT 04/M09 A3022 RMK A01 T00431094  RH  036%=      5-min Rain = 0
KHA2 130228Z 17008KT 04/M09 A3022 RMK A01 T00431094  RH  036%=      5-min Rain = 0
KHA2 130229Z 17008KT 04/M09 A3022 RMK A01 T00431094  RH  036%=      5-min Rain = 0
KHA2 130230Z 17008KT 04/M09 A3022 RMK A01 T00431094  RH  036%=      5-min Rain = 0
KHA2 130231Z 17008KT 04/M09 A3022 RMK A01 T00431094  RH  036%=      5-min Rain = 0
KHA2 130232Z 17008KT 04/M09 A3022 RMK A01 T00431094  RH  036%=      5-min Rain = 0
KHA2 130233Z 17007KT 04/M09 A3022 RMK A01 T00431094  RH  036%=      5-min Rain = 0
KHA2 130234Z 17007KT 04/M09 A3022 RMK A01 T00431094  RH  036%=      5-min Rain = 0
KHA2 130235Z 17007KT 04/M09 A3022 RMK A01 T00421094  RH  036%=      5-min Rain = 0
KHA2 130236Z 17007KT 04/M10 A3022 RMK A01 T00421095  RH  036%=      5-min Rain = 0
KHA2 130237Z 17007KT 04/M10 A3022 RMK A01 T00421095  RH  036%=      5-min Rain = 0
KHA2 130238Z 17007KT 04/M10 A3022 RMK A01 T00421095  RH  036%=      5-min Rain = 0
KHA2 130239Z 17007KT 04/M10 A3022 RMK A01 T00411095  RH  036%=      5-min Rain = 0
KHA2 130240Z 17007KT 04/M10 A3022 RMK A01 T00411095  RH  036%=      5-min Rain = 0
KHA2 130241Z 17007KT 04/M10 A3022 RMK A01 T00411095  RH  036%=      5-min Rain = 0
KHA2 130242Z 17007KT 04/M10 A3022 RMK A01 T00411095  RH  036%=      5-min Rain = 0
KHA2 130243Z 17007KT 04/M10 A3022 RMK A01 T00401096  RH  036%=      5-min Rain = 0
KHA2 130244Z 17007KT 04/M10 A3022 RMK A01 T00401095  RH  037%=      5-min Rain = 0
KHA2 130245Z 16007KT 04/M10 A3022 RMK A01 T00401095  RH  037%=      5-min Rain = 0
KHA2 130246Z 16008KT 04/M10 A3022 RMK A01 T00401095  RH  037%=      5-min Rain = 0
KHA2 130247Z 16007KT 04/M10 A3022 RMK A01 T00401096  RH  037%=      5-min Rain = 0
KHA2 130248Z 16008KT 04/M10 A3022 RMK A01 T00401095  RH  037%=      5-min Rain = 0
KHA2 130249Z 16007KT 04/M10 A3022 RMK A01 T00391095  RH  037%=      5-min Rain = 0
KHA2 130250Z 16007KT 04/M10 A3022 RMK A01 T00401095  RH  037%=      5-min Rain = 0
KHA2 130251Z 16007KT 04/M10 A3022 RMK A01 T00391095  RH  037%=      5-min Rain = 0
KHA2 130252Z 16008KT 04/M10 A3022 RMK A01 T00391095  RH  037%=      5-min Rain = 0
KHA2 130253Z 16008KT 04/M09 A3022 RMK A01 T00381094  RH  037%=      5-min Rain = 0
KHA2 130254Z 16008KT 04/M09 A3022 RMK A01 T00381094  RH  037%=      5-min Rain = 0
KHA2 130255Z 17008KT 04/M09 A3022 RMK A01 T00371094  RH  038%=      5-min Rain = 0
KHA2 130256Z 16007KT 04/M10 A3022 RMK A01 T00361095  RH  038%=      5-min Rain = 0
KHA2 130257Z 15007KT 04/M10 A3022 RMK A01 T00361095  RH  038%=      5-min Rain = 0
KHA2 130258Z 13007KT 03/M09 A3022 RMK A01 T00341094  RH  038%=      5-min Rain = 0
KHA2 130259Z 14008KT 03/M09 A3022 RMK A01 T00321092  RH  040%=      5-min Rain = 0
KHA2 130300Z 13008KT 03/M09 A3022 RMK A01 T00311093  RH  040%=      5-min Rain = 0
KHA2 130301Z 13008KT 03/M09 A3022 RMK A01 T00301093  RH  040%=      5-min Rain = 0
KHA2 130302Z 13008KT 03/M09 A3022 RMK A01 T00301094  RH  040%=      5-min Rain = 0
KHA2 130303Z 13007KT 03/M10 A3022 RMK A01 T00291095  RH  040%=      5-min Rain = 0
KHA2 130304Z 14007KT 03/M10 A3022 RMK A01 T00281095  RH  040%=      5-min Rain = 0
KHA2 130305Z 14007KT 03/M10 A3022 RMK A01 T00271096  RH  040%=      5-min Rain = 0
KHA2 130306Z 14007KT 03/M10 A3022 RMK A01 T00261097  RH  040%=      5-min Rain = 0
KHA2 130307Z 14006KT 03/M10 A3023 RMK A01 T00251098  RH  040%=      5-min Rain = 0
KHA2 130308Z 14006KT 02/M10 A3023 RMK A01 T00241098  RH  040%=      5-min Rain = 0
KHA2 130309Z 14007KT 02/M10 A3023 RMK A01 T00231098  RH  040%=      5-min Rain = 0
KHA2 130310Z 14007KT 02/M10 A3023 RMK A01 T00221099  RH  040%=      5-min Rain = 0
KHA2 130311Z 14007KT 02/M10 A3023 RMK A01 T00221099  RH  040%=      5-min Rain = 0
KHA2 130312Z 14007KT 02/M10 A3023 RMK A01 T00221099  RH  040%=      5-min Rain = 0
KHA2 130313Z 14007KT 02/M10 A3023 RMK A01 T00221099  RH  040%=      5-min Rain = 0
KHA2 130314Z 14007KT 02/M10 A3023 RMK A01 T00211099  RH  040%=      5-min Rain = 0
KHA2 130315Z 14007KT 02/M10 A3023 RMK A01 T00211100  RH  040%=      5-min Rain = 0
KHA2 130316Z 14008KT 02/M10 A3023 RMK A01 T00211100  RH  040%=      5-min Rain = 0
KHA2 130317Z 14008KT 02/M10 A3023 RMK A01 T00211100  RH  041%=      5-min Rain = 0
KHA2 130318Z 14008KT 02/M10 A3023 RMK A01 T00211100  RH  041%=      5-min Rain = 0
KHA2 130319Z 14008KT 02/M10 A3023 RMK A01 T00211099  RH  041%=      5-min Rain = 0
KHA2 130320Z 14008KT 02/M10 A3023 RMK A01 T00211099  RH  041%=      5-min Rain = 0
KHA2 130321Z 14008KT 02/M10 A3023 RMK A01 T00211099  RH  041%=      5-min Rain = 0
KHA2 130322Z 14008KT 02/M10 A3023 RMK A01 T00211098  RH  041%=      5-min Rain = 0
KHA2 130323Z 14008KT 02/M10 A3023 RMK A01 T00201098  RH  041%=      5-min Rain = 0
KHA2 130324Z 14008KT 02/M10 A3023 RMK A01 T00201098  RH  041%=      5-min Rain = 0
KHA2 130325Z 14008KT 02/M10 A3023 RMK A01 T00191097  RH  042%=      5-min Rain = 0
KHA2 130326Z 14008KT 02/M10 A3023 RMK A01 T00201096  RH  042%=      5-min Rain = 0
KHA2 130327Z 14008KT 02/M09 A3023 RMK A01 T00201094  RH  043%=      5-min Rain = 0
KHA2 130328Z 14008KT 02/M09 A3023 RMK A01 T00211093  RH  043%=      5-min Rain = 0
KHA2 130329Z 14008KT 02/M09 A3023 RMK A01 T00211092  RH  043%=      5-min Rain = 0
KHA2 130330Z 14009KT 02/M09 A3023 RMK A01 T00221091  RH  043%=      5-min Rain = 0
KHA2 130331Z 13009KT 02/M09 A3023 RMK A01 T00231089  RH  043%=      5-min Rain = 0
KHA2 130332Z 14009KT 02/M09 A3023 RMK A01 T00241088  RH  043%=      5-min Rain = 0
KHA2 130333Z 14009KT 03/M09 A3023 RMK A01 T00251087  RH  043%=      5-min Rain = 0
KHA2 130334Z 13009KT 03/M09 A3023 RMK A01 T00261086  RH  043%=      5-min Rain = 0
KHA2 130335Z 14009KT 03/M09 A3023 RMK A01 T00271085  RH  043%=      5-min Rain = 0
KHA2 130336Z 14009KT 03/M09 A3023 RMK A01 T00271086  RH  043%=      5-min Rain = 0
KHA2 130337Z 14008KT 03/M09 A3023 RMK A01 T00271086  RH  043%=      5-min Rain = 0
KHA2 130338Z 14008KT 03/M09 A3023 RMK A01 T00271086  RH  043%=      5-min Rain = 0
KHA2 130339Z 13008KT 03/M09 A3023 RMK A01 T00271086  RH  043%=      5-min Rain = 0
KHA2 130340Z 14008KT 03/M09 A3023 RMK A01 T00271086  RH  043%=      5-min Rain = 0
KHA2 130341Z 14008KT 03/M09 A3023 RMK A01 T00271086  RH  043%=      5-min Rain = 0
KHA2 130342Z 14008KT 03/M09 A3023 RMK A01 T00271086  RH  043%=      5-min Rain = 0
KHA2 130343Z 13008KT 03/M09 A3023 RMK A01 T00261086  RH  044%=      5-min Rain = 0
KHA2 130344Z 13008KT 03/M09 A3023 RMK A01 T00261085  RH  044%=      5-min Rain = 0
KHA2 130345Z 13008KT 03/M09 A3023 RMK A01 T00251085  RH  044%=      5-min Rain = 0
KHA2 130346Z 13008KT 03/M08 A3023 RMK A01 T00261084  RH  044%=      5-min Rain = 0
KHA2 130347Z 13008KT 03/M08 A3023 RMK A01 T00251084  RH  044%=      5-min Rain = 0
KHA2 130348Z 13008KT 03/M08 A3023 RMK A01 T00261084  RH  044%=      5-min Rain = 0
KHA2 130349Z 13008KT 03/M09 A3023 RMK A01 T00261085  RH  044%=      5-min Rain = 0
KHA2 130350Z 13009KT 03/M08 A3023 RMK A01 T00251084  RH  044%=      5-min Rain = 0
KHA2 130351Z 13008KT 03/M08 A3023 RMK A01 T00251084  RH  044%=      5-min Rain = 0
KHA2 130352Z 13008KT 03/M08 A3023 RMK A01 T00261084  RH  044%=      5-min Rain = 0
KHA2 130353Z 14008KT 03/M08 A3023 RMK A01 T00251084  RH  044%=      5-min Rain = 0
KHA2 130354Z 14008KT 03/M08 A3023 RMK A01 T00251084  RH  044%=      5-min Rain = 0
KHA2 130355Z 14007KT 03/M08 A3023 RMK A01 T00251084  RH  045%=      5-min Rain = 0
KHA2 130356Z 14007KT 02/M08 A3023 RMK A01 T00241084  RH  045%=      5-min Rain = 0
KHA2 130357Z 14007KT 02/M09 A3023 RMK A01 T00221086  RH  045%=      5-min Rain = 0
KHA2 130358Z 14007KT 02/M09 A3023 RMK A01 T00201086  RH  045%=      5-min Rain = 0
KHA2 130359Z 14007KT 02/M09 A3023 RMK A01 T00191087  RH  045%=      5-min Rain = 0
KHA2 130400Z 14008KT 02/M09 A3023 RMK A01 T00181087  RH  046%=      5-min Rain = 0
KHA2 130401Z 14008KT 02/M09 A3023 RMK A01 T00171087  RH  046%=      5-min Rain = 0
KHA2 130402Z 14007KT 02/M09 A3023 RMK A01 T00161087  RH  046%=      5-min Rain = 0
KHA2 130403Z 14007KT 02/M09 A3023 RMK A01 T00161087  RH  046%=      5-min Rain = 0
KHA2 130404Z 14007KT 02/M09 A3023 RMK A01 T00161087  RH  046%=      5-min Rain = 0
KHA2 130405Z 14007KT 02/M09 A3023 RMK A01 T00151088  RH  046%=      5-min Rain = 0
KHA2 130406Z 14007KT 01/M09 A3023 RMK A01 T00141089  RH  046%=      5-min Rain = 0
KHA2 130407Z 14007KT 01/M09 A3023 RMK A01 T00131089  RH  046%=      5-min Rain = 0
KHA2 130408Z 14007KT 01/M09 A3023 RMK A01 T00131089  RH  047%=      5-min Rain = 0
KHA2 130409Z 14008KT 01/M09 A3023 RMK A01 T00131089  RH  047%=      5-min Rain = 0
KHA2 130410Z 14008KT 01/M09 A3023 RMK A01 T00131089  RH  047%=      5-min Rain = 0
KHA2 130411Z 14008KT 01/M09 A3023 RMK A01 T00131089  RH  047%=      5-min Rain = 0
KHA2 130412Z 14008KT 01/M09 A3023 RMK A01 T00131089  RH  047%=      5-min Rain = 0
KHA2 130413Z 14008KT 01/M09 A3023 RMK A01 T00131088  RH  047%=      5-min Rain = 0
KHA2 130414Z 14008KT 01/M09 A3023 RMK A01 T00131089  RH  047%=      5-min Rain = 0
KHA2 130415Z 14008KT 01/M09 A3023 RMK A01 T00131088  RH  047%=      5-min Rain = 0
KHA2 130416Z 14008KT 01/M09 A3023 RMK A01 T00131089  RH  047%=      5-min Rain = 0
KHA2 130417Z 14008KT 01/M09 A3023 RMK A01 T00121089  RH  047%=      5-min Rain = 0
KHA2 130418Z 14008KT 01/M09 A3023 RMK A01 T00121089  RH  047%=      5-min Rain = 0
KHA2 130419Z 14008KT 01/M09 A3023 RMK A01 T00121089  RH  047%=      5-min Rain = 0
KHA2 130420Z 14008KT 01/M09 A3023 RMK A01 T00111089  RH  047%=      5-min Rain = 0
KHA2 130421Z 14008KT 01/M09 A3023 RMK A01 T00111088  RH  048%=      5-min Rain = 0
KHA2 130422Z 14008KT 01/M09 A3023 RMK A01 T00101088  RH  048%=      5-min Rain = 0
KHA2 130423Z 14007KT 01/M09 A3023 RMK A01 T00091088  RH  048%=      5-min Rain = 0
KHA2 130424Z 14007KT 01/M09 A3023 RMK A01 T00081088  RH  048%=      5-min Rain = 0
KHA2 130425Z 14007KT 01/M09 A3023 RMK A01 T00081089  RH  049%=      5-min Rain = 0
KHA2 130426Z 13007KT 01/M09 A3023 RMK A01 T00071089  RH  049%=      5-min Rain = 0
KHA2 130427Z 13007KT 01/M09 A3023 RMK A01 T00071089  RH  049%=      5-min Rain = 0
KHA2 130428Z 13007KT 01/M09 A3023 RMK A01 T00071089  RH  049%=      5-min Rain = 0
KHA2 130429Z 13007KT 01/M09 A3023 RMK A01 T00071089  RH  049%=      5-min Rain = 0
KHA2 130430Z 13007KT 01/M09 A3023 RMK A01 T00071089  RH  049%=      5-min Rain = 0
KHA2 130431Z 13007KT 01/M09 A3023 RMK A01 T00071089  RH  049%=      5-min Rain = 0
KHA2 130432Z 14007KT 01/M09 A3023 RMK A01 T00061089  RH  049%=      5-min Rain = 0
KHA2 130433Z 14007KT 01/M09 A3023 RMK A01 T00061089  RH  049%=      5-min Rain = 0
KHA2 130434Z 14007KT 01/M09 A3023 RMK A01 T00061090  RH  049%=      5-min Rain = 0
KHA2 130435Z 14007KT 01/M09 A3023 RMK A01 T00061090  RH  049%=      5-min Rain = 0
KHA2 130436Z 14007KT 01/M09 A3023 RMK A01 T00051091  RH  049%=      5-min Rain = 0
KHA2 130437Z 14007KT 01/M09 A3023 RMK A01 T00051091  RH  049%=      5-min Rain = 0
KHA2 130438Z 14006KT 00/M09 A3023 RMK A01 T00041091  RH  049%=      5-min Rain = 0
KHA2 130439Z 14006KT 00/M09 A3023 RMK A01 T00041091  RH  049%=      5-min Rain = 0
KHA2 130440Z 14006KT 00/M09 A3023 RMK A01 T00031091  RH  049%=      5-min Rain = 0
KHA2 130441Z 14006KT 00/M09 A3023 RMK A01 T00031091  RH  049%=      5-min Rain = 0
KHA2 130442Z 14006KT 00/M09 A3023 RMK A01 T00031091  RH  049%=      5-min Rain = 0
KHA2 130443Z 14006KT 00/M09 A3023 RMK A01 T00021091  RH  049%=      5-min Rain = 0
KHA2 130444Z 14006KT 00/M09 A3023 RMK A01 T00021091  RH  049%=      5-min Rain = 0
KHA2 130445Z 13006KT 00/M09 A3023 RMK A01 T00021092  RH  049%=      5-min Rain = 0
KHA2 130446Z 13006KT 00/M09 A3023 RMK A01 T00021092  RH  049%=      5-min Rain = 0
KHA2 130447Z 13006KT 00/M09 A3023 RMK A01 T00021092  RH  049%=      5-min Rain = 0
KHA2 130448Z 13006KT 00/M09 A3023 RMK A01 T00021091  RH  050%=      5-min Rain = 0
KHA2 130449Z 14006KT 00/M09 A3023 RMK A01 T00021091  RH  050%=      5-min Rain = 0
KHA2 130450Z 14006KT 00/M09 A3023 RMK A01 T00021091  RH  050%=      5-min Rain = 0
KHA2 130451Z 14007KT 00/M09 A3023 RMK A01 T00031090  RH  050%=      5-min Rain = 0
KHA2 130452Z 14007KT 00/M09 A3023 RMK A01 T00031089  RH  050%=      5-min Rain = 0
KHA2 130453Z 14006KT 00/M09 A3023 RMK A01 T00041089  RH  050%=      5-min Rain = 0
KHA2 130454Z 14005KT 00/M09 A3023 RMK A01 T00041090  RH  049%=      5-min Rain = 0
KHA2 130455Z 15006KT 00/M09 A3023 RMK A01 T00031093  RH  048%=      5-min Rain = 0
KHA2 130456Z 14007KT 00/M09 A3023 RMK A01 T00031092  RH  049%=      5-min Rain = 0
KHA2 130457Z 14007KT 00/M09 A3023 RMK A01 T00031091  RH  049%=      5-min Rain = 0
KHA2 130458Z 14008KT 00/M09 A3023 RMK A01 T00031091  RH  050%=      5-min Rain = 0
KHA2 130459Z 15006KT 00/M09 A3023 RMK A01 T00031091  RH  049%=      5-min Rain = 0

Page generated in 0.1424 seconds.